<?xml version="1.0" encoding="UTF-8" standalone="no" ?>
<gpx xmlns="http://www.topografix.com/GPX/1/1" xmlns:xsi="http://www.w3.org/2001/XMLSchema-instance" xsi:schemaLocation="http://www.topografix.com/GPX/1/1 http://www.topografix.com/GPX/1/1/gpx.xsd" version="1.1" creator="VisuGPX - https://www.visugpx.com">
  <metadata>
    <name>204_Circuit 60 km Les Herbiers_Les Herbiers édité par cth85.com</name>
    <desc><![CDATA[Circuit de 77 km passant par:
Les Herbiers
D11 Mesnard la Barotière
D11 Saint Fulgent
D37 Chauché
D37 Boulogne
D39 sur 2 km, à droite D80 La Merlatière
D80 La Ferrière
D52 Saint Martin des Noyers
D47 Sainte Cécile
D48 Mouchamps
Les Herbiers via le gué jourdain]]></desc>
  </metadata>
  <trk>
    <name><![CDATA[60_204-cth85.com]]></name>
    <extensions>
      <line xmlns="http://www.topografix.com/GPX/gpx_style/0/2">
        <color>0000FF</color>
        <width>4</width>
      </line>
    </extensions>
    <trkseg>
      <trkpt lat="46.86389" lon="-1.00558">
        <ele>120</ele>
        <time>2023-11-29T20:40:35Z</time>
      </trkpt>
      <trkpt lat="46.86382" lon="-1.00563">
        <ele>120</ele>
        <time>2023-11-29T20:40:36Z</time>
      </trkpt>
      <trkpt lat="46.86367" lon="-1.00581">
        <ele>120</ele>
        <time>2023-11-29T20:40:40Z</time>
      </trkpt>
      <trkpt lat="46.86324" lon="-1.00626">
        <ele>119</ele>
        <time>2023-11-29T20:40:49Z</time>
      </trkpt>
      <trkpt lat="46.86271" lon="-1.00663">
        <ele>118</ele>
        <time>2023-11-29T20:41:00Z</time>
      </trkpt>
      <trkpt lat="46.86235" lon="-1.00681">
        <ele>117</ele>
        <time>2023-11-29T20:41:06Z</time>
      </trkpt>
      <trkpt lat="46.86247" lon="-1.00733">
        <ele>118</ele>
        <time>2023-11-29T20:41:13Z</time>
      </trkpt>
      <trkpt lat="46.86255" lon="-1.00787">
        <ele>119</ele>
        <time>2023-11-29T20:41:20Z</time>
      </trkpt>
      <trkpt lat="46.86256" lon="-1.00808">
        <ele>119</ele>
        <time>2023-11-29T20:41:22Z</time>
      </trkpt>
      <trkpt lat="46.86256" lon="-1.00825">
        <ele>119</ele>
        <time>2023-11-29T20:41:24Z</time>
      </trkpt>
      <trkpt lat="46.86252" lon="-1.00851">
        <ele>119</ele>
        <time>2023-11-29T20:41:28Z</time>
      </trkpt>
      <trkpt lat="46.86248" lon="-1.00864">
        <ele>119</ele>
        <time>2023-11-29T20:41:29Z</time>
      </trkpt>
      <trkpt lat="46.86155" lon="-1.01112">
        <ele>116</ele>
        <time>2023-11-29T20:42:04Z</time>
      </trkpt>
      <trkpt lat="46.86179" lon="-1.01133">
        <ele>116</ele>
        <time>2023-11-29T20:42:09Z</time>
      </trkpt>
      <trkpt lat="46.86184" lon="-1.01141">
        <ele>116</ele>
        <time>2023-11-29T20:42:10Z</time>
      </trkpt>
      <trkpt lat="46.86228" lon="-1.0117">
        <ele>116</ele>
        <time>2023-11-29T20:42:19Z</time>
      </trkpt>
      <trkpt lat="46.86298" lon="-1.0122">
        <ele>117</ele>
        <time>2023-11-29T20:42:33Z</time>
      </trkpt>
      <trkpt lat="46.86326" lon="-1.01236">
        <ele>117</ele>
        <time>2023-11-29T20:42:38Z</time>
      </trkpt>
      <trkpt lat="46.8633" lon="-1.01227">
        <ele>117</ele>
        <time>2023-11-29T20:42:39Z</time>
      </trkpt>
      <trkpt lat="46.86336" lon="-1.01224">
        <ele>117</ele>
        <time>2023-11-29T20:42:40Z</time>
      </trkpt>
      <trkpt lat="46.86339" lon="-1.01225">
        <ele>117</ele>
        <time>2023-11-29T20:42:41Z</time>
      </trkpt>
      <trkpt lat="46.86344" lon="-1.01232">
        <ele>117</ele>
        <time>2023-11-29T20:42:42Z</time>
      </trkpt>
      <trkpt lat="46.86345" lon="-1.01241">
        <ele>117</ele>
        <time>2023-11-29T20:42:43Z</time>
      </trkpt>
      <trkpt lat="46.86342" lon="-1.01249">
        <ele>117</ele>
        <time>2023-11-29T20:42:44Z</time>
      </trkpt>
      <trkpt lat="46.86336" lon="-1.01252">
        <ele>117</ele>
        <time>2023-11-29T20:42:46Z</time>
      </trkpt>
      <trkpt lat="46.8633" lon="-1.0125">
        <ele>117</ele>
        <time>2023-11-29T20:42:47Z</time>
      </trkpt>
      <trkpt lat="46.86324" lon="-1.01264">
        <ele>117</ele>
        <time>2023-11-29T20:42:49Z</time>
      </trkpt>
      <trkpt lat="46.86307" lon="-1.01408">
        <ele>116</ele>
        <time>2023-11-29T20:43:06Z</time>
      </trkpt>
      <trkpt lat="46.8629" lon="-1.01519">
        <ele>114</ele>
        <time>2023-11-29T20:43:20Z</time>
      </trkpt>
      <trkpt lat="46.86283" lon="-1.01576">
        <ele>113</ele>
        <time>2023-11-29T20:43:27Z</time>
      </trkpt>
      <trkpt lat="46.86289" lon="-1.01581">
        <ele>113</ele>
        <time>2023-11-29T20:43:29Z</time>
      </trkpt>
      <trkpt lat="46.86292" lon="-1.01591">
        <ele>114</ele>
        <time>2023-11-29T20:43:30Z</time>
      </trkpt>
      <trkpt lat="46.86291" lon="-1.01595">
        <ele>114</ele>
        <time>2023-11-29T20:43:30Z</time>
      </trkpt>
      <trkpt lat="46.86287" lon="-1.01602">
        <ele>114</ele>
        <time>2023-11-29T20:43:31Z</time>
      </trkpt>
      <trkpt lat="46.86281" lon="-1.01603">
        <ele>113</ele>
        <time>2023-11-29T20:43:33Z</time>
      </trkpt>
      <trkpt lat="46.86276" lon="-1.01599">
        <ele>113</ele>
        <time>2023-11-29T20:43:34Z</time>
      </trkpt>
      <trkpt lat="46.86274" lon="-1.01596">
        <ele>113</ele>
        <time>2023-11-29T20:43:34Z</time>
      </trkpt>
      <trkpt lat="46.86273" lon="-1.01587">
        <ele>113</ele>
        <time>2023-11-29T20:43:35Z</time>
      </trkpt>
      <trkpt lat="46.86265" lon="-1.01585">
        <ele>113</ele>
        <time>2023-11-29T20:43:37Z</time>
      </trkpt>
      <trkpt lat="46.86264" lon="-1.01594">
        <ele>113</ele>
        <time>2023-11-29T20:43:38Z</time>
      </trkpt>
      <trkpt lat="46.86262" lon="-1.01616">
        <ele>113</ele>
        <time>2023-11-29T20:43:40Z</time>
      </trkpt>
      <trkpt lat="46.86184" lon="-1.01719">
        <ele>114</ele>
        <time>2023-11-29T20:43:59Z</time>
      </trkpt>
      <trkpt lat="46.86175" lon="-1.01819">
        <ele>113</ele>
        <time>2023-11-29T20:44:11Z</time>
      </trkpt>
      <trkpt lat="46.86169" lon="-1.0183">
        <ele>113</ele>
        <time>2023-11-29T20:44:13Z</time>
      </trkpt>
      <trkpt lat="46.86097" lon="-1.01927">
        <ele>113</ele>
        <time>2023-11-29T20:44:31Z</time>
      </trkpt>
      <trkpt lat="46.86091" lon="-1.01948">
        <ele>113</ele>
        <time>2023-11-29T20:44:33Z</time>
      </trkpt>
      <trkpt lat="46.86098" lon="-1.0197">
        <ele>113</ele>
        <time>2023-11-29T20:44:36Z</time>
      </trkpt>
      <trkpt lat="46.86161" lon="-1.02099">
        <ele>111</ele>
        <time>2023-11-29T20:44:56Z</time>
      </trkpt>
      <trkpt lat="46.86162" lon="-1.02105">
        <ele>111</ele>
        <time>2023-11-29T20:44:56Z</time>
      </trkpt>
      <trkpt lat="46.8616" lon="-1.02111">
        <ele>112</ele>
        <time>2023-11-29T20:44:57Z</time>
      </trkpt>
      <trkpt lat="46.86194" lon="-1.02178">
        <ele>112</ele>
        <time>2023-11-29T20:45:07Z</time>
      </trkpt>
      <trkpt lat="46.86216" lon="-1.02212">
        <ele>112</ele>
        <time>2023-11-29T20:45:13Z</time>
      </trkpt>
      <trkpt lat="46.86227" lon="-1.02227">
        <ele>112</ele>
        <time>2023-11-29T20:45:16Z</time>
      </trkpt>
      <trkpt lat="46.86265" lon="-1.0226">
        <ele>112</ele>
        <time>2023-11-29T20:45:24Z</time>
      </trkpt>
      <trkpt lat="46.86287" lon="-1.02275">
        <ele>111</ele>
        <time>2023-11-29T20:45:28Z</time>
      </trkpt>
      <trkpt lat="46.86328" lon="-1.02293">
        <ele>111</ele>
        <time>2023-11-29T20:45:35Z</time>
      </trkpt>
      <trkpt lat="46.86379" lon="-1.02313">
        <ele>109</ele>
        <time>2023-11-29T20:45:45Z</time>
      </trkpt>
      <trkpt lat="46.86413" lon="-1.0233">
        <ele>108</ele>
        <time>2023-11-29T20:45:51Z</time>
      </trkpt>
      <trkpt lat="46.86467" lon="-1.02366">
        <ele>106</ele>
        <time>2023-11-29T20:46:02Z</time>
      </trkpt>
      <trkpt lat="46.86499" lon="-1.02395">
        <ele>106</ele>
        <time>2023-11-29T20:46:08Z</time>
      </trkpt>
      <trkpt lat="46.86504" lon="-1.02391">
        <ele>105</ele>
        <time>2023-11-29T20:46:09Z</time>
      </trkpt>
      <trkpt lat="46.86508" lon="-1.02392">
        <ele>105</ele>
        <time>2023-11-29T20:46:10Z</time>
      </trkpt>
      <trkpt lat="46.86529" lon="-1.02416">
        <ele>105</ele>
        <time>2023-11-29T20:46:15Z</time>
      </trkpt>
      <trkpt lat="46.8655" lon="-1.02443">
        <ele>106</ele>
        <time>2023-11-29T20:46:20Z</time>
      </trkpt>
      <trkpt lat="46.86619" lon="-1.02532">
        <ele>104</ele>
        <time>2023-11-29T20:46:36Z</time>
      </trkpt>
      <trkpt lat="46.86629" lon="-1.02546">
        <ele>104</ele>
        <time>2023-11-29T20:46:39Z</time>
      </trkpt>
      <trkpt lat="46.86633" lon="-1.02554">
        <ele>104</ele>
        <time>2023-11-29T20:46:40Z</time>
      </trkpt>
      <trkpt lat="46.86671" lon="-1.02598">
        <ele>102</ele>
        <time>2023-11-29T20:46:49Z</time>
      </trkpt>
      <trkpt lat="46.86666" lon="-1.02608">
        <ele>102</ele>
        <time>2023-11-29T20:46:50Z</time>
      </trkpt>
      <trkpt lat="46.86659" lon="-1.02613">
        <ele>102</ele>
        <time>2023-11-29T20:46:51Z</time>
      </trkpt>
      <trkpt lat="46.86657" lon="-1.02617">
        <ele>102</ele>
        <time>2023-11-29T20:46:52Z</time>
      </trkpt>
      <trkpt lat="46.86657" lon="-1.02642">
        <ele>102</ele>
        <time>2023-11-29T20:46:55Z</time>
      </trkpt>
      <trkpt lat="46.86654" lon="-1.02662">
        <ele>102</ele>
        <time>2023-11-29T20:46:58Z</time>
      </trkpt>
      <trkpt lat="46.86667" lon="-1.02685">
        <ele>101</ele>
        <time>2023-11-29T20:47:01Z</time>
      </trkpt>
      <trkpt lat="46.8669" lon="-1.02683">
        <ele>101</ele>
        <time>2023-11-29T20:47:05Z</time>
      </trkpt>
      <trkpt lat="46.86699" lon="-1.02677">
        <ele>100</ele>
        <time>2023-11-29T20:47:07Z</time>
      </trkpt>
      <trkpt lat="46.86708" lon="-1.02667">
        <ele>100</ele>
        <time>2023-11-29T20:47:09Z</time>
      </trkpt>
      <trkpt lat="46.86718" lon="-1.02661">
        <ele>100</ele>
        <time>2023-11-29T20:47:11Z</time>
      </trkpt>
      <trkpt lat="46.86756" lon="-1.02654">
        <ele>99</ele>
        <time>2023-11-29T20:47:18Z</time>
      </trkpt>
      <trkpt lat="46.86815" lon="-1.02659">
        <ele>97</ele>
        <time>2023-11-29T20:47:28Z</time>
      </trkpt>
      <trkpt lat="46.86832" lon="-1.02667">
        <ele>96</ele>
        <time>2023-11-29T20:47:32Z</time>
      </trkpt>
      <trkpt lat="46.86854" lon="-1.02679">
        <ele>96</ele>
        <time>2023-11-29T20:47:36Z</time>
      </trkpt>
      <trkpt lat="46.86954" lon="-1.02765">
        <ele>94</ele>
        <time>2023-11-29T20:47:56Z</time>
      </trkpt>
      <trkpt lat="46.8697" lon="-1.02772">
        <ele>94</ele>
        <time>2023-11-29T20:47:59Z</time>
      </trkpt>
      <trkpt lat="46.86989" lon="-1.02777">
        <ele>94</ele>
        <time>2023-11-29T20:48:03Z</time>
      </trkpt>
      <trkpt lat="46.87024" lon="-1.02774">
        <ele>94</ele>
        <time>2023-11-29T20:48:09Z</time>
      </trkpt>
      <trkpt lat="46.87074" lon="-1.02755">
        <ele>95</ele>
        <time>2023-11-29T20:48:18Z</time>
      </trkpt>
      <trkpt lat="46.8712" lon="-1.02734">
        <ele>96</ele>
        <time>2023-11-29T20:48:27Z</time>
      </trkpt>
      <trkpt lat="46.87126" lon="-1.02734">
        <ele>96</ele>
        <time>2023-11-29T20:48:28Z</time>
      </trkpt>
      <trkpt lat="46.87131" lon="-1.02737">
        <ele>95</ele>
        <time>2023-11-29T20:48:29Z</time>
      </trkpt>
      <trkpt lat="46.87136" lon="-1.02743">
        <ele>95</ele>
        <time>2023-11-29T20:48:30Z</time>
      </trkpt>
      <trkpt lat="46.8714" lon="-1.02758">
        <ele>95</ele>
        <time>2023-11-29T20:48:32Z</time>
      </trkpt>
      <trkpt lat="46.87144" lon="-1.02761">
        <ele>95</ele>
        <time>2023-11-29T20:48:33Z</time>
      </trkpt>
      <trkpt lat="46.8716" lon="-1.02761">
        <ele>95</ele>
        <time>2023-11-29T20:48:36Z</time>
      </trkpt>
      <trkpt lat="46.87156" lon="-1.02781">
        <ele>95</ele>
        <time>2023-11-29T20:48:38Z</time>
      </trkpt>
      <trkpt lat="46.87151" lon="-1.02839">
        <ele>94</ele>
        <time>2023-11-29T20:48:45Z</time>
      </trkpt>
      <trkpt lat="46.8715" lon="-1.02876">
        <ele>94</ele>
        <time>2023-11-29T20:48:50Z</time>
      </trkpt>
      <trkpt lat="46.87152" lon="-1.0295">
        <ele>93</ele>
        <time>2023-11-29T20:48:59Z</time>
      </trkpt>
      <trkpt lat="46.8716" lon="-1.03047">
        <ele>92</ele>
        <time>2023-11-29T20:49:11Z</time>
      </trkpt>
      <trkpt lat="46.8718" lon="-1.03261">
        <ele>90</ele>
        <time>2023-11-29T20:49:37Z</time>
      </trkpt>
      <trkpt lat="46.87181" lon="-1.03298">
        <ele>90</ele>
        <time>2023-11-29T20:49:41Z</time>
      </trkpt>
      <trkpt lat="46.8718" lon="-1.03336">
        <ele>91</ele>
        <time>2023-11-29T20:49:46Z</time>
      </trkpt>
      <trkpt lat="46.87176" lon="-1.03388">
        <ele>91</ele>
        <time>2023-11-29T20:49:52Z</time>
      </trkpt>
      <trkpt lat="46.87167" lon="-1.03443">
        <ele>91</ele>
        <time>2023-11-29T20:49:59Z</time>
      </trkpt>
      <trkpt lat="46.87124" lon="-1.03601">
        <ele>91</ele>
        <time>2023-11-29T20:50:20Z</time>
      </trkpt>
      <trkpt lat="46.87118" lon="-1.03635">
        <ele>91</ele>
        <time>2023-11-29T20:50:24Z</time>
      </trkpt>
      <trkpt lat="46.87116" lon="-1.03652">
        <ele>91</ele>
        <time>2023-11-29T20:50:26Z</time>
      </trkpt>
      <trkpt lat="46.87117" lon="-1.03691">
        <ele>91</ele>
        <time>2023-11-29T20:50:31Z</time>
      </trkpt>
      <trkpt lat="46.87126" lon="-1.03779">
        <ele>90</ele>
        <time>2023-11-29T20:50:42Z</time>
      </trkpt>
      <trkpt lat="46.87135" lon="-1.03783">
        <ele>90</ele>
        <time>2023-11-29T20:50:44Z</time>
      </trkpt>
      <trkpt lat="46.8714" lon="-1.03789">
        <ele>90</ele>
        <time>2023-11-29T20:50:45Z</time>
      </trkpt>
      <trkpt lat="46.87142" lon="-1.03799">
        <ele>90</ele>
        <time>2023-11-29T20:50:46Z</time>
      </trkpt>
      <trkpt lat="46.87141" lon="-1.03806">
        <ele>90</ele>
        <time>2023-11-29T20:50:47Z</time>
      </trkpt>
      <trkpt lat="46.87136" lon="-1.03817">
        <ele>90</ele>
        <time>2023-11-29T20:50:48Z</time>
      </trkpt>
      <trkpt lat="46.87164" lon="-1.03871">
        <ele>91</ele>
        <time>2023-11-29T20:50:57Z</time>
      </trkpt>
      <trkpt lat="46.8717" lon="-1.03886">
        <ele>91</ele>
        <time>2023-11-29T20:50:59Z</time>
      </trkpt>
      <trkpt lat="46.87181" lon="-1.03922">
        <ele>92</ele>
        <time>2023-11-29T20:51:04Z</time>
      </trkpt>
      <trkpt lat="46.872" lon="-1.04009">
        <ele>92</ele>
        <time>2023-11-29T20:51:15Z</time>
      </trkpt>
      <trkpt lat="46.87206" lon="-1.04041">
        <ele>92</ele>
        <time>2023-11-29T20:51:19Z</time>
      </trkpt>
      <trkpt lat="46.87213" lon="-1.04106">
        <ele>92</ele>
        <time>2023-11-29T20:51:27Z</time>
      </trkpt>
      <trkpt lat="46.87221" lon="-1.04151">
        <ele>91</ele>
        <time>2023-11-29T20:51:32Z</time>
      </trkpt>
      <trkpt lat="46.87239" lon="-1.04208">
        <ele>89</ele>
        <time>2023-11-29T20:51:40Z</time>
      </trkpt>
      <trkpt lat="46.87276" lon="-1.04301">
        <ele>88</ele>
        <time>2023-11-29T20:51:53Z</time>
      </trkpt>
      <trkpt lat="46.874" lon="-1.04596">
        <ele>89</ele>
        <time>2023-11-29T20:52:35Z</time>
      </trkpt>
      <trkpt lat="46.8755" lon="-1.04952">
        <ele>88</ele>
        <time>2023-11-29T20:53:26Z</time>
      </trkpt>
      <trkpt lat="46.87599" lon="-1.05073">
        <ele>87</ele>
        <time>2023-11-29T20:53:43Z</time>
      </trkpt>
      <trkpt lat="46.87629" lon="-1.05157">
        <ele>87</ele>
        <time>2023-11-29T20:53:55Z</time>
      </trkpt>
      <trkpt lat="46.87642" lon="-1.05206">
        <ele>87</ele>
        <time>2023-11-29T20:54:01Z</time>
      </trkpt>
      <trkpt lat="46.87647" lon="-1.05234">
        <ele>87</ele>
        <time>2023-11-29T20:54:05Z</time>
      </trkpt>
      <trkpt lat="46.87667" lon="-1.05353">
        <ele>87</ele>
        <time>2023-11-29T20:54:20Z</time>
      </trkpt>
      <trkpt lat="46.87672" lon="-1.05404">
        <ele>86</ele>
        <time>2023-11-29T20:54:26Z</time>
      </trkpt>
      <trkpt lat="46.87672" lon="-1.05447">
        <ele>86</ele>
        <time>2023-11-29T20:54:31Z</time>
      </trkpt>
      <trkpt lat="46.87669" lon="-1.05473">
        <ele>85</ele>
        <time>2023-11-29T20:54:34Z</time>
      </trkpt>
      <trkpt lat="46.87599" lon="-1.05847">
        <ele>85</ele>
        <time>2023-11-29T20:55:21Z</time>
      </trkpt>
      <trkpt lat="46.87509" lon="-1.06371">
        <ele>85</ele>
        <time>2023-11-29T20:56:27Z</time>
      </trkpt>
      <trkpt lat="46.87492" lon="-1.06535">
        <ele>86</ele>
        <time>2023-11-29T20:56:47Z</time>
      </trkpt>
      <trkpt lat="46.87491" lon="-1.06575">
        <ele>86</ele>
        <time>2023-11-29T20:56:52Z</time>
      </trkpt>
      <trkpt lat="46.87495" lon="-1.06621">
        <ele>86</ele>
        <time>2023-11-29T20:56:58Z</time>
      </trkpt>
      <trkpt lat="46.87533" lon="-1.06882">
        <ele>84</ele>
        <time>2023-11-29T20:57:30Z</time>
      </trkpt>
      <trkpt lat="46.87559" lon="-1.07226">
        <ele>83</ele>
        <time>2023-11-29T20:58:12Z</time>
      </trkpt>
      <trkpt lat="46.8756" lon="-1.0729">
        <ele>82</ele>
        <time>2023-11-29T20:58:20Z</time>
      </trkpt>
      <trkpt lat="46.87558" lon="-1.07329">
        <ele>82</ele>
        <time>2023-11-29T20:58:25Z</time>
      </trkpt>
      <trkpt lat="46.87532" lon="-1.07565">
        <ele>83</ele>
        <time>2023-11-29T20:58:54Z</time>
      </trkpt>
      <trkpt lat="46.87523" lon="-1.07621">
        <ele>84</ele>
        <time>2023-11-29T20:59:01Z</time>
      </trkpt>
      <trkpt lat="46.8751" lon="-1.07666">
        <ele>85</ele>
        <time>2023-11-29T20:59:07Z</time>
      </trkpt>
      <trkpt lat="46.87405" lon="-1.07982">
        <ele>91</ele>
        <time>2023-11-29T20:59:50Z</time>
      </trkpt>
      <trkpt lat="46.87277" lon="-1.08377">
        <ele>96</ele>
        <time>2023-11-29T21:00:43Z</time>
      </trkpt>
      <trkpt lat="46.87239" lon="-1.08489">
        <ele>96</ele>
        <time>2023-11-29T21:00:58Z</time>
      </trkpt>
      <trkpt lat="46.87213" lon="-1.0854">
        <ele>96</ele>
        <time>2023-11-29T21:01:06Z</time>
      </trkpt>
      <trkpt lat="46.87198" lon="-1.08561">
        <ele>95</ele>
        <time>2023-11-29T21:01:10Z</time>
      </trkpt>
      <trkpt lat="46.87164" lon="-1.08596">
        <ele>95</ele>
        <time>2023-11-29T21:01:17Z</time>
      </trkpt>
      <trkpt lat="46.86377" lon="-1.09275">
        <ele>85</ele>
        <time>2023-11-29T21:03:59Z</time>
      </trkpt>
      <trkpt lat="46.8636" lon="-1.09293">
        <ele>84</ele>
        <time>2023-11-29T21:04:03Z</time>
      </trkpt>
      <trkpt lat="46.86329" lon="-1.0934">
        <ele>82</ele>
        <time>2023-11-29T21:04:11Z</time>
      </trkpt>
      <trkpt lat="46.86286" lon="-1.09428">
        <ele>80</ele>
        <time>2023-11-29T21:04:24Z</time>
      </trkpt>
      <trkpt lat="46.86193" lon="-1.09616">
        <ele>79</ele>
        <time>2023-11-29T21:04:53Z</time>
      </trkpt>
      <trkpt lat="46.86184" lon="-1.09641">
        <ele>79</ele>
        <time>2023-11-29T21:04:56Z</time>
      </trkpt>
      <trkpt lat="46.86178" lon="-1.09671">
        <ele>79</ele>
        <time>2023-11-29T21:05:00Z</time>
      </trkpt>
      <trkpt lat="46.86177" lon="-1.09696">
        <ele>80</ele>
        <time>2023-11-29T21:05:03Z</time>
      </trkpt>
      <trkpt lat="46.86175" lon="-1.09719">
        <ele>80</ele>
        <time>2023-11-29T21:05:06Z</time>
      </trkpt>
      <trkpt lat="46.8617" lon="-1.09787">
        <ele>82</ele>
        <time>2023-11-29T21:05:14Z</time>
      </trkpt>
      <trkpt lat="46.86161" lon="-1.09811">
        <ele>83</ele>
        <time>2023-11-29T21:05:17Z</time>
      </trkpt>
      <trkpt lat="46.86147" lon="-1.0983">
        <ele>85</ele>
        <time>2023-11-29T21:05:21Z</time>
      </trkpt>
      <trkpt lat="46.86077" lon="-1.09901">
        <ele>88</ele>
        <time>2023-11-29T21:05:36Z</time>
      </trkpt>
      <trkpt lat="46.86049" lon="-1.09936">
        <ele>89</ele>
        <time>2023-11-29T21:05:42Z</time>
      </trkpt>
      <trkpt lat="46.86078" lon="-1.09996">
        <ele>88</ele>
        <time>2023-11-29T21:05:51Z</time>
      </trkpt>
      <trkpt lat="46.86128" lon="-1.10052">
        <ele>87</ele>
        <time>2023-11-29T21:06:03Z</time>
      </trkpt>
      <trkpt lat="46.86142" lon="-1.10071">
        <ele>86</ele>
        <time>2023-11-29T21:06:06Z</time>
      </trkpt>
      <trkpt lat="46.8615" lon="-1.10086">
        <ele>86</ele>
        <time>2023-11-29T21:06:08Z</time>
      </trkpt>
      <trkpt lat="46.86175" lon="-1.1015">
        <ele>90</ele>
        <time>2023-11-29T21:06:17Z</time>
      </trkpt>
      <trkpt lat="46.86348" lon="-1.1063">
        <ele>94</ele>
        <time>2023-11-29T21:07:23Z</time>
      </trkpt>
      <trkpt lat="46.86361" lon="-1.10673">
        <ele>93</ele>
        <time>2023-11-29T21:07:29Z</time>
      </trkpt>
      <trkpt lat="46.8637" lon="-1.10715">
        <ele>94</ele>
        <time>2023-11-29T21:07:34Z</time>
      </trkpt>
      <trkpt lat="46.86449" lon="-1.1119">
        <ele>96</ele>
        <time>2023-11-29T21:08:34Z</time>
      </trkpt>
      <trkpt lat="46.86461" lon="-1.11239">
        <ele>95</ele>
        <time>2023-11-29T21:08:40Z</time>
      </trkpt>
      <trkpt lat="46.8662" lon="-1.11814">
        <ele>85</ele>
        <time>2023-11-29T21:09:56Z</time>
      </trkpt>
      <trkpt lat="46.86627" lon="-1.1185">
        <ele>86</ele>
        <time>2023-11-29T21:10:00Z</time>
      </trkpt>
      <trkpt lat="46.86628" lon="-1.11874">
        <ele>86</ele>
        <time>2023-11-29T21:10:03Z</time>
      </trkpt>
      <trkpt lat="46.86626" lon="-1.11891">
        <ele>87</ele>
        <time>2023-11-29T21:10:05Z</time>
      </trkpt>
      <trkpt lat="46.86622" lon="-1.1191">
        <ele>88</ele>
        <time>2023-11-29T21:10:08Z</time>
      </trkpt>
      <trkpt lat="46.86527" lon="-1.12226">
        <ele>93</ele>
        <time>2023-11-29T21:10:50Z</time>
      </trkpt>
      <trkpt lat="46.86515" lon="-1.12276">
        <ele>94</ele>
        <time>2023-11-29T21:10:56Z</time>
      </trkpt>
      <trkpt lat="46.86506" lon="-1.12319">
        <ele>95</ele>
        <time>2023-11-29T21:11:01Z</time>
      </trkpt>
      <trkpt lat="46.86478" lon="-1.12486">
        <ele>98</ele>
        <time>2023-11-29T21:11:22Z</time>
      </trkpt>
      <trkpt lat="46.86421" lon="-1.12829">
        <ele>100</ele>
        <time>2023-11-29T21:12:05Z</time>
      </trkpt>
      <trkpt lat="46.86409" lon="-1.1288">
        <ele>99</ele>
        <time>2023-11-29T21:12:12Z</time>
      </trkpt>
      <trkpt lat="46.86344" lon="-1.13112">
        <ele>101</ele>
        <time>2023-11-29T21:12:42Z</time>
      </trkpt>
      <trkpt lat="46.86321" lon="-1.13175">
        <ele>102</ele>
        <time>2023-11-29T21:12:51Z</time>
      </trkpt>
      <trkpt lat="46.85995" lon="-1.13825">
        <ele>103</ele>
        <time>2023-11-29T21:14:29Z</time>
      </trkpt>
      <trkpt lat="46.85973" lon="-1.1386">
        <ele>103</ele>
        <time>2023-11-29T21:14:35Z</time>
      </trkpt>
      <trkpt lat="46.85949" lon="-1.13893">
        <ele>104</ele>
        <time>2023-11-29T21:14:41Z</time>
      </trkpt>
      <trkpt lat="46.85923" lon="-1.13921">
        <ele>104</ele>
        <time>2023-11-29T21:14:47Z</time>
      </trkpt>
      <trkpt lat="46.85895" lon="-1.13944">
        <ele>103</ele>
        <time>2023-11-29T21:14:52Z</time>
      </trkpt>
      <trkpt lat="46.85867" lon="-1.13963">
        <ele>103</ele>
        <time>2023-11-29T21:14:58Z</time>
      </trkpt>
      <trkpt lat="46.85815" lon="-1.13993">
        <ele>103</ele>
        <time>2023-11-29T21:15:08Z</time>
      </trkpt>
      <trkpt lat="46.85783" lon="-1.14016">
        <ele>103</ele>
        <time>2023-11-29T21:15:14Z</time>
      </trkpt>
      <trkpt lat="46.85763" lon="-1.14037">
        <ele>102</ele>
        <time>2023-11-29T21:15:18Z</time>
      </trkpt>
      <trkpt lat="46.85736" lon="-1.14073">
        <ele>102</ele>
        <time>2023-11-29T21:15:25Z</time>
      </trkpt>
      <trkpt lat="46.8572" lon="-1.14101">
        <ele>101</ele>
        <time>2023-11-29T21:15:29Z</time>
      </trkpt>
      <trkpt lat="46.85709" lon="-1.14126">
        <ele>101</ele>
        <time>2023-11-29T21:15:33Z</time>
      </trkpt>
      <trkpt lat="46.85699" lon="-1.14153">
        <ele>100</ele>
        <time>2023-11-29T21:15:37Z</time>
      </trkpt>
      <trkpt lat="46.85691" lon="-1.14182">
        <ele>100</ele>
        <time>2023-11-29T21:15:41Z</time>
      </trkpt>
      <trkpt lat="46.85684" lon="-1.14212">
        <ele>99</ele>
        <time>2023-11-29T21:15:44Z</time>
      </trkpt>
      <trkpt lat="46.85676" lon="-1.14276">
        <ele>99</ele>
        <time>2023-11-29T21:15:52Z</time>
      </trkpt>
      <trkpt lat="46.85668" lon="-1.1434">
        <ele>99</ele>
        <time>2023-11-29T21:16:00Z</time>
      </trkpt>
      <trkpt lat="46.85629" lon="-1.14667">
        <ele>97</ele>
        <time>2023-11-29T21:16:41Z</time>
      </trkpt>
      <trkpt lat="46.85622" lon="-1.14712">
        <ele>97</ele>
        <time>2023-11-29T21:16:46Z</time>
      </trkpt>
      <trkpt lat="46.85566" lon="-1.14978">
        <ele>97</ele>
        <time>2023-11-29T21:17:20Z</time>
      </trkpt>
      <trkpt lat="46.85358" lon="-1.15919">
        <ele>95</ele>
        <time>2023-11-29T21:19:20Z</time>
      </trkpt>
      <trkpt lat="46.85239" lon="-1.16438">
        <ele>92</ele>
        <time>2023-11-29T21:20:27Z</time>
      </trkpt>
      <trkpt lat="46.85222" lon="-1.16514">
        <ele>90</ele>
        <time>2023-11-29T21:20:37Z</time>
      </trkpt>
      <trkpt lat="46.85195" lon="-1.16629">
        <ele>88</ele>
        <time>2023-11-29T21:20:52Z</time>
      </trkpt>
      <trkpt lat="46.85189" lon="-1.16649">
        <ele>88</ele>
        <time>2023-11-29T21:20:54Z</time>
      </trkpt>
      <trkpt lat="46.8519" lon="-1.16668">
        <ele>88</ele>
        <time>2023-11-29T21:20:57Z</time>
      </trkpt>
      <trkpt lat="46.85195" lon="-1.16676">
        <ele>88</ele>
        <time>2023-11-29T21:20:58Z</time>
      </trkpt>
      <trkpt lat="46.85196" lon="-1.16683">
        <ele>88</ele>
        <time>2023-11-29T21:20:59Z</time>
      </trkpt>
      <trkpt lat="46.85194" lon="-1.16696">
        <ele>88</ele>
        <time>2023-11-29T21:21:00Z</time>
      </trkpt>
      <trkpt lat="46.85188" lon="-1.16704">
        <ele>87</ele>
        <time>2023-11-29T21:21:02Z</time>
      </trkpt>
      <trkpt lat="46.85182" lon="-1.16706">
        <ele>87</ele>
        <time>2023-11-29T21:21:03Z</time>
      </trkpt>
      <trkpt lat="46.85172" lon="-1.16726">
        <ele>87</ele>
        <time>2023-11-29T21:21:06Z</time>
      </trkpt>
      <trkpt lat="46.85163" lon="-1.16766">
        <ele>87</ele>
        <time>2023-11-29T21:21:11Z</time>
      </trkpt>
      <trkpt lat="46.85123" lon="-1.16865">
        <ele>85</ele>
        <time>2023-11-29T21:21:25Z</time>
      </trkpt>
      <trkpt lat="46.85066" lon="-1.16996">
        <ele>81</ele>
        <time>2023-11-29T21:21:44Z</time>
      </trkpt>
      <trkpt lat="46.85055" lon="-1.1703">
        <ele>81</ele>
        <time>2023-11-29T21:21:48Z</time>
      </trkpt>
      <trkpt lat="46.85018" lon="-1.17177">
        <ele>79</ele>
        <time>2023-11-29T21:22:08Z</time>
      </trkpt>
      <trkpt lat="46.85006" lon="-1.17222">
        <ele>79</ele>
        <time>2023-11-29T21:22:13Z</time>
      </trkpt>
      <trkpt lat="46.84996" lon="-1.17294">
        <ele>79</ele>
        <time>2023-11-29T21:22:22Z</time>
      </trkpt>
      <trkpt lat="46.84999" lon="-1.17299">
        <ele>78</ele>
        <time>2023-11-29T21:22:23Z</time>
      </trkpt>
      <trkpt lat="46.84998" lon="-1.17304">
        <ele>78</ele>
        <time>2023-11-29T21:22:24Z</time>
      </trkpt>
      <trkpt lat="46.85011" lon="-1.1734">
        <ele>77</ele>
        <time>2023-11-29T21:22:29Z</time>
      </trkpt>
      <trkpt lat="46.85027" lon="-1.17388">
        <ele>76</ele>
        <time>2023-11-29T21:22:35Z</time>
      </trkpt>
      <trkpt lat="46.85033" lon="-1.1745">
        <ele>76</ele>
        <time>2023-11-29T21:22:43Z</time>
      </trkpt>
      <trkpt lat="46.8503" lon="-1.17481">
        <ele>76</ele>
        <time>2023-11-29T21:22:47Z</time>
      </trkpt>
      <trkpt lat="46.85031" lon="-1.17496">
        <ele>76</ele>
        <time>2023-11-29T21:22:49Z</time>
      </trkpt>
      <trkpt lat="46.85038" lon="-1.17531">
        <ele>76</ele>
        <time>2023-11-29T21:22:53Z</time>
      </trkpt>
      <trkpt lat="46.85058" lon="-1.17612">
        <ele>77</ele>
        <time>2023-11-29T21:23:03Z</time>
      </trkpt>
      <trkpt lat="46.85032" lon="-1.1762">
        <ele>76</ele>
        <time>2023-11-29T21:23:08Z</time>
      </trkpt>
      <trkpt lat="46.85019" lon="-1.17617">
        <ele>76</ele>
        <time>2023-11-29T21:23:11Z</time>
      </trkpt>
      <trkpt lat="46.85007" lon="-1.17676">
        <ele>75</ele>
        <time>2023-11-29T21:23:18Z</time>
      </trkpt>
      <trkpt lat="46.85007" lon="-1.17698">
        <ele>74</ele>
        <time>2023-11-29T21:23:21Z</time>
      </trkpt>
      <trkpt lat="46.8501" lon="-1.17735">
        <ele>74</ele>
        <time>2023-11-29T21:23:25Z</time>
      </trkpt>
      <trkpt lat="46.85009" lon="-1.17745">
        <ele>74</ele>
        <time>2023-11-29T21:23:26Z</time>
      </trkpt>
      <trkpt lat="46.85006" lon="-1.17758">
        <ele>73</ele>
        <time>2023-11-29T21:23:28Z</time>
      </trkpt>
      <trkpt lat="46.84964" lon="-1.17886">
        <ele>75</ele>
        <time>2023-11-29T21:23:45Z</time>
      </trkpt>
      <trkpt lat="46.84954" lon="-1.17928">
        <ele>75</ele>
        <time>2023-11-29T21:23:51Z</time>
      </trkpt>
      <trkpt lat="46.84959" lon="-1.17933">
        <ele>75</ele>
        <time>2023-11-29T21:23:52Z</time>
      </trkpt>
      <trkpt lat="46.8496" lon="-1.17938">
        <ele>75</ele>
        <time>2023-11-29T21:23:53Z</time>
      </trkpt>
      <trkpt lat="46.84957" lon="-1.17948">
        <ele>75</ele>
        <time>2023-11-29T21:23:54Z</time>
      </trkpt>
      <trkpt lat="46.84964" lon="-1.17971">
        <ele>75</ele>
        <time>2023-11-29T21:23:57Z</time>
      </trkpt>
      <trkpt lat="46.85055" lon="-1.18613">
        <ele>77</ele>
        <time>2023-11-29T21:25:17Z</time>
      </trkpt>
      <trkpt lat="46.85058" lon="-1.18621">
        <ele>77</ele>
        <time>2023-11-29T21:25:18Z</time>
      </trkpt>
      <trkpt lat="46.85062" lon="-1.18619">
        <ele>77</ele>
        <time>2023-11-29T21:25:19Z</time>
      </trkpt>
      <trkpt lat="46.85067" lon="-1.18621">
        <ele>78</ele>
        <time>2023-11-29T21:25:19Z</time>
      </trkpt>
      <trkpt lat="46.85069" lon="-1.18627">
        <ele>78</ele>
        <time>2023-11-29T21:25:20Z</time>
      </trkpt>
      <trkpt lat="46.85067" lon="-1.18635">
        <ele>78</ele>
        <time>2023-11-29T21:25:21Z</time>
      </trkpt>
      <trkpt lat="46.85061" lon="-1.18638">
        <ele>78</ele>
        <time>2023-11-29T21:25:22Z</time>
      </trkpt>
      <trkpt lat="46.85062" lon="-1.18667">
        <ele>78</ele>
        <time>2023-11-29T21:25:26Z</time>
      </trkpt>
      <trkpt lat="46.85088" lon="-1.18865">
        <ele>78</ele>
        <time>2023-11-29T21:25:51Z</time>
      </trkpt>
      <trkpt lat="46.85093" lon="-1.18931">
        <ele>76</ele>
        <time>2023-11-29T21:25:59Z</time>
      </trkpt>
      <trkpt lat="46.85091" lon="-1.18952">
        <ele>75</ele>
        <time>2023-11-29T21:26:01Z</time>
      </trkpt>
      <trkpt lat="46.85079" lon="-1.19004">
        <ele>74</ele>
        <time>2023-11-29T21:26:08Z</time>
      </trkpt>
      <trkpt lat="46.85024" lon="-1.1918">
        <ele>68</ele>
        <time>2023-11-29T21:26:31Z</time>
      </trkpt>
      <trkpt lat="46.85015" lon="-1.19207">
        <ele>69</ele>
        <time>2023-11-29T21:26:35Z</time>
      </trkpt>
      <trkpt lat="46.85012" lon="-1.19232">
        <ele>69</ele>
        <time>2023-11-29T21:26:38Z</time>
      </trkpt>
      <trkpt lat="46.85012" lon="-1.19247">
        <ele>70</ele>
        <time>2023-11-29T21:26:40Z</time>
      </trkpt>
      <trkpt lat="46.85014" lon="-1.19261">
        <ele>70</ele>
        <time>2023-11-29T21:26:42Z</time>
      </trkpt>
      <trkpt lat="46.8501" lon="-1.19274">
        <ele>69</ele>
        <time>2023-11-29T21:26:43Z</time>
      </trkpt>
      <trkpt lat="46.85007" lon="-1.19278">
        <ele>69</ele>
        <time>2023-11-29T21:26:44Z</time>
      </trkpt>
      <trkpt lat="46.85" lon="-1.19281">
        <ele>69</ele>
        <time>2023-11-29T21:26:45Z</time>
      </trkpt>
      <trkpt lat="46.84991" lon="-1.19301">
        <ele>68</ele>
        <time>2023-11-29T21:26:48Z</time>
      </trkpt>
      <trkpt lat="46.84985" lon="-1.19321">
        <ele>67</ele>
        <time>2023-11-29T21:26:51Z</time>
      </trkpt>
      <trkpt lat="46.84981" lon="-1.19365">
        <ele>65</ele>
        <time>2023-11-29T21:26:56Z</time>
      </trkpt>
      <trkpt lat="46.84994" lon="-1.19414">
        <ele>62</ele>
        <time>2023-11-29T21:27:03Z</time>
      </trkpt>
      <trkpt lat="46.8505" lon="-1.19588">
        <ele>59</ele>
        <time>2023-11-29T21:27:26Z</time>
      </trkpt>
      <trkpt lat="46.85059" lon="-1.19631">
        <ele>58</ele>
        <time>2023-11-29T21:27:32Z</time>
      </trkpt>
      <trkpt lat="46.8506" lon="-1.19643">
        <ele>57</ele>
        <time>2023-11-29T21:27:33Z</time>
      </trkpt>
      <trkpt lat="46.85058" lon="-1.19668">
        <ele>57</ele>
        <time>2023-11-29T21:27:36Z</time>
      </trkpt>
      <trkpt lat="46.85048" lon="-1.19704">
        <ele>58</ele>
        <time>2023-11-29T21:27:41Z</time>
      </trkpt>
      <trkpt lat="46.85006" lon="-1.19823">
        <ele>61</ele>
        <time>2023-11-29T21:27:57Z</time>
      </trkpt>
      <trkpt lat="46.84997" lon="-1.19848">
        <ele>61</ele>
        <time>2023-11-29T21:28:01Z</time>
      </trkpt>
      <trkpt lat="46.84989" lon="-1.19863">
        <ele>61</ele>
        <time>2023-11-29T21:28:03Z</time>
      </trkpt>
      <trkpt lat="46.84978" lon="-1.19877">
        <ele>61</ele>
        <time>2023-11-29T21:28:06Z</time>
      </trkpt>
      <trkpt lat="46.84962" lon="-1.19892">
        <ele>61</ele>
        <time>2023-11-29T21:28:09Z</time>
      </trkpt>
      <trkpt lat="46.84867" lon="-1.19973">
        <ele>63</ele>
        <time>2023-11-29T21:28:29Z</time>
      </trkpt>
      <trkpt lat="46.84826" lon="-1.20023">
        <ele>62</ele>
        <time>2023-11-29T21:28:38Z</time>
      </trkpt>
      <trkpt lat="46.84789" lon="-1.20074">
        <ele>63</ele>
        <time>2023-11-29T21:28:47Z</time>
      </trkpt>
      <trkpt lat="46.84671" lon="-1.20219">
        <ele>63</ele>
        <time>2023-11-29T21:29:15Z</time>
      </trkpt>
      <trkpt lat="46.84658" lon="-1.20238">
        <ele>63</ele>
        <time>2023-11-29T21:29:18Z</time>
      </trkpt>
      <trkpt lat="46.8465" lon="-1.20255">
        <ele>63</ele>
        <time>2023-11-29T21:29:20Z</time>
      </trkpt>
      <trkpt lat="46.84642" lon="-1.20275">
        <ele>64</ele>
        <time>2023-11-29T21:29:23Z</time>
      </trkpt>
      <trkpt lat="46.84632" lon="-1.20324">
        <ele>65</ele>
        <time>2023-11-29T21:29:29Z</time>
      </trkpt>
      <trkpt lat="46.84583" lon="-1.20604">
        <ele>71</ele>
        <time>2023-11-29T21:30:05Z</time>
      </trkpt>
      <trkpt lat="46.84548" lon="-1.20805">
        <ele>75</ele>
        <time>2023-11-29T21:30:30Z</time>
      </trkpt>
      <trkpt lat="46.84469" lon="-1.21235">
        <ele>73</ele>
        <time>2023-11-29T21:31:24Z</time>
      </trkpt>
      <trkpt lat="46.84458" lon="-1.21279">
        <ele>73</ele>
        <time>2023-11-29T21:31:30Z</time>
      </trkpt>
      <trkpt lat="46.84451" lon="-1.21303">
        <ele>72</ele>
        <time>2023-11-29T21:31:33Z</time>
      </trkpt>
      <trkpt lat="46.8444" lon="-1.21328">
        <ele>72</ele>
        <time>2023-11-29T21:31:36Z</time>
      </trkpt>
      <trkpt lat="46.84365" lon="-1.21482">
        <ele>73</ele>
        <time>2023-11-29T21:31:59Z</time>
      </trkpt>
      <trkpt lat="46.84213" lon="-1.21781">
        <ele>78</ele>
        <time>2023-11-29T21:32:45Z</time>
      </trkpt>
      <trkpt lat="46.842" lon="-1.21813">
        <ele>78</ele>
        <time>2023-11-29T21:32:49Z</time>
      </trkpt>
      <trkpt lat="46.84184" lon="-1.21867">
        <ele>79</ele>
        <time>2023-11-29T21:32:56Z</time>
      </trkpt>
      <trkpt lat="46.84178" lon="-1.21893">
        <ele>79</ele>
        <time>2023-11-29T21:33:00Z</time>
      </trkpt>
      <trkpt lat="46.84171" lon="-1.21953">
        <ele>79</ele>
        <time>2023-11-29T21:33:07Z</time>
      </trkpt>
      <trkpt lat="46.8416" lon="-1.22199">
        <ele>78</ele>
        <time>2023-11-29T21:33:37Z</time>
      </trkpt>
      <trkpt lat="46.84156" lon="-1.22333">
        <ele>76</ele>
        <time>2023-11-29T21:33:54Z</time>
      </trkpt>
      <trkpt lat="46.84158" lon="-1.22383">
        <ele>76</ele>
        <time>2023-11-29T21:34:00Z</time>
      </trkpt>
      <trkpt lat="46.84172" lon="-1.22542">
        <ele>76</ele>
        <time>2023-11-29T21:34:19Z</time>
      </trkpt>
      <trkpt lat="46.84173" lon="-1.22568">
        <ele>76</ele>
        <time>2023-11-29T21:34:22Z</time>
      </trkpt>
      <trkpt lat="46.84173" lon="-1.22596">
        <ele>76</ele>
        <time>2023-11-29T21:34:26Z</time>
      </trkpt>
      <trkpt lat="46.84168" lon="-1.2266">
        <ele>75</ele>
        <time>2023-11-29T21:34:34Z</time>
      </trkpt>
      <trkpt lat="46.84157" lon="-1.2271">
        <ele>75</ele>
        <time>2023-11-29T21:34:40Z</time>
      </trkpt>
      <trkpt lat="46.84049" lon="-1.23071">
        <ele>76</ele>
        <time>2023-11-29T21:35:28Z</time>
      </trkpt>
      <trkpt lat="46.83988" lon="-1.23279">
        <ele>77</ele>
        <time>2023-11-29T21:35:55Z</time>
      </trkpt>
      <trkpt lat="46.83979" lon="-1.23334">
        <ele>78</ele>
        <time>2023-11-29T21:36:02Z</time>
      </trkpt>
      <trkpt lat="46.83943" lon="-1.23771">
        <ele>77</ele>
        <time>2023-11-29T21:36:56Z</time>
      </trkpt>
      <trkpt lat="46.83943" lon="-1.23829">
        <ele>76</ele>
        <time>2023-11-29T21:37:03Z</time>
      </trkpt>
      <trkpt lat="46.83946" lon="-1.23864">
        <ele>75</ele>
        <time>2023-11-29T21:37:07Z</time>
      </trkpt>
      <trkpt lat="46.83951" lon="-1.23901">
        <ele>73</ele>
        <time>2023-11-29T21:37:12Z</time>
      </trkpt>
      <trkpt lat="46.83975" lon="-1.24017">
        <ele>72</ele>
        <time>2023-11-29T21:37:27Z</time>
      </trkpt>
      <trkpt lat="46.83982" lon="-1.24075">
        <ele>72</ele>
        <time>2023-11-29T21:37:34Z</time>
      </trkpt>
      <trkpt lat="46.83982" lon="-1.24114">
        <ele>73</ele>
        <time>2023-11-29T21:37:39Z</time>
      </trkpt>
      <trkpt lat="46.83979" lon="-1.24154">
        <ele>74</ele>
        <time>2023-11-29T21:37:43Z</time>
      </trkpt>
      <trkpt lat="46.83974" lon="-1.24185">
        <ele>74</ele>
        <time>2023-11-29T21:37:47Z</time>
      </trkpt>
      <trkpt lat="46.83929" lon="-1.24424">
        <ele>79</ele>
        <time>2023-11-29T21:38:17Z</time>
      </trkpt>
      <trkpt lat="46.83784" lon="-1.25183">
        <ele>79</ele>
        <time>2023-11-29T21:39:53Z</time>
      </trkpt>
      <trkpt lat="46.83768" lon="-1.25234">
        <ele>78</ele>
        <time>2023-11-29T21:40:00Z</time>
      </trkpt>
      <trkpt lat="46.83757" lon="-1.2526">
        <ele>78</ele>
        <time>2023-11-29T21:40:04Z</time>
      </trkpt>
      <trkpt lat="46.83738" lon="-1.25291">
        <ele>77</ele>
        <time>2023-11-29T21:40:09Z</time>
      </trkpt>
      <trkpt lat="46.83719" lon="-1.25318">
        <ele>76</ele>
        <time>2023-11-29T21:40:14Z</time>
      </trkpt>
      <trkpt lat="46.83627" lon="-1.25429">
        <ele>74</ele>
        <time>2023-11-29T21:40:35Z</time>
      </trkpt>
      <trkpt lat="46.83603" lon="-1.25466">
        <ele>73</ele>
        <time>2023-11-29T21:40:41Z</time>
      </trkpt>
      <trkpt lat="46.83571" lon="-1.25533">
        <ele>72</ele>
        <time>2023-11-29T21:40:51Z</time>
      </trkpt>
      <trkpt lat="46.83553" lon="-1.25581">
        <ele>71</ele>
        <time>2023-11-29T21:40:58Z</time>
      </trkpt>
      <trkpt lat="46.83511" lon="-1.25664">
        <ele>69</ele>
        <time>2023-11-29T21:41:10Z</time>
      </trkpt>
      <trkpt lat="46.83411" lon="-1.25875">
        <ele>63</ele>
        <time>2023-11-29T21:41:42Z</time>
      </trkpt>
      <trkpt lat="46.83378" lon="-1.25922">
        <ele>62</ele>
        <time>2023-11-29T21:41:50Z</time>
      </trkpt>
      <trkpt lat="46.8324" lon="-1.26051">
        <ele>66</ele>
        <time>2023-11-29T21:42:19Z</time>
      </trkpt>
      <trkpt lat="46.83223" lon="-1.26071">
        <ele>66</ele>
        <time>2023-11-29T21:42:23Z</time>
      </trkpt>
      <trkpt lat="46.83214" lon="-1.26088">
        <ele>66</ele>
        <time>2023-11-29T21:42:25Z</time>
      </trkpt>
      <trkpt lat="46.83146" lon="-1.26254">
        <ele>65</ele>
        <time>2023-11-29T21:42:49Z</time>
      </trkpt>
      <trkpt lat="46.83127" lon="-1.263">
        <ele>66</ele>
        <time>2023-11-29T21:42:56Z</time>
      </trkpt>
      <trkpt lat="46.83118" lon="-1.26338">
        <ele>66</ele>
        <time>2023-11-29T21:43:00Z</time>
      </trkpt>
      <trkpt lat="46.83114" lon="-1.26369">
        <ele>66</ele>
        <time>2023-11-29T21:43:04Z</time>
      </trkpt>
      <trkpt lat="46.83114" lon="-1.26392">
        <ele>66</ele>
        <time>2023-11-29T21:43:07Z</time>
      </trkpt>
      <trkpt lat="46.83126" lon="-1.26735">
        <ele>58</ele>
        <time>2023-11-29T21:43:49Z</time>
      </trkpt>
      <trkpt lat="46.83125" lon="-1.26758">
        <ele>58</ele>
        <time>2023-11-29T21:43:52Z</time>
      </trkpt>
      <trkpt lat="46.83122" lon="-1.26775">
        <ele>57</ele>
        <time>2023-11-29T21:43:54Z</time>
      </trkpt>
      <trkpt lat="46.83118" lon="-1.2679">
        <ele>56</ele>
        <time>2023-11-29T21:43:56Z</time>
      </trkpt>
      <trkpt lat="46.83108" lon="-1.26814">
        <ele>56</ele>
        <time>2023-11-29T21:43:59Z</time>
      </trkpt>
      <trkpt lat="46.83099" lon="-1.26833">
        <ele>55</ele>
        <time>2023-11-29T21:44:02Z</time>
      </trkpt>
      <trkpt lat="46.83042" lon="-1.26946">
        <ele>61</ele>
        <time>2023-11-29T21:44:19Z</time>
      </trkpt>
      <trkpt lat="46.83023" lon="-1.26971">
        <ele>63</ele>
        <time>2023-11-29T21:44:24Z</time>
      </trkpt>
      <trkpt lat="46.83007" lon="-1.26989">
        <ele>64</ele>
        <time>2023-11-29T21:44:27Z</time>
      </trkpt>
      <trkpt lat="46.83001" lon="-1.27">
        <ele>64</ele>
        <time>2023-11-29T21:44:29Z</time>
      </trkpt>
      <trkpt lat="46.83003" lon="-1.27006">
        <ele>64</ele>
        <time>2023-11-29T21:44:30Z</time>
      </trkpt>
      <trkpt lat="46.83003" lon="-1.2701">
        <ele>64</ele>
        <time>2023-11-29T21:44:30Z</time>
      </trkpt>
      <trkpt lat="46.83" lon="-1.27013">
        <ele>64</ele>
        <time>2023-11-29T21:44:31Z</time>
      </trkpt>
      <trkpt lat="46.82997" lon="-1.27013">
        <ele>65</ele>
        <time>2023-11-29T21:44:31Z</time>
      </trkpt>
      <trkpt lat="46.82994" lon="-1.27011">
        <ele>65</ele>
        <time>2023-11-29T21:44:32Z</time>
      </trkpt>
      <trkpt lat="46.82993" lon="-1.27007">
        <ele>65</ele>
        <time>2023-11-29T21:44:33Z</time>
      </trkpt>
      <trkpt lat="46.82983" lon="-1.2701">
        <ele>65</ele>
        <time>2023-11-29T21:44:34Z</time>
      </trkpt>
      <trkpt lat="46.82922" lon="-1.2704">
        <ele>69</ele>
        <time>2023-11-29T21:44:46Z</time>
      </trkpt>
      <trkpt lat="46.8288" lon="-1.27064">
        <ele>70.6</ele>
      </trkpt>
      <trkpt lat="46.8286" lon="-1.27044">
        <ele>70.2</ele>
      </trkpt>
      <trkpt lat="46.82831" lon="-1.27006">
        <ele>67.7</ele>
      </trkpt>
      <trkpt lat="46.82809" lon="-1.26984">
        <ele>65.9</ele>
      </trkpt>
      <trkpt lat="46.82788" lon="-1.26972">
        <ele>63.3</ele>
      </trkpt>
      <trkpt lat="46.82756" lon="-1.26963">
        <ele>57.6</ele>
      </trkpt>
      <trkpt lat="46.82729" lon="-1.26954">
        <ele>56.2</ele>
      </trkpt>
      <trkpt lat="46.82702" lon="-1.26936">
        <ele>58.7</ele>
      </trkpt>
      <trkpt lat="46.82674" lon="-1.26907">
        <ele>62.1</ele>
      </trkpt>
      <trkpt lat="46.8263" lon="-1.26879">
        <ele>65.8</ele>
      </trkpt>
      <trkpt lat="46.82594" lon="-1.26859">
        <ele>67.1</ele>
      </trkpt>
      <trkpt lat="46.82558" lon="-1.26828">
        <ele>67.3</ele>
      </trkpt>
      <trkpt lat="46.82516" lon="-1.26792">
        <ele>67.9</ele>
      </trkpt>
      <trkpt lat="46.82475" lon="-1.26772">
        <ele>69.4</ele>
      </trkpt>
      <trkpt lat="46.82439" lon="-1.26758">
        <ele>69.2</ele>
      </trkpt>
      <trkpt lat="46.82395" lon="-1.26744">
        <ele>67.6</ele>
      </trkpt>
      <trkpt lat="46.82356" lon="-1.26727">
        <ele>67</ele>
      </trkpt>
      <trkpt lat="46.82316" lon="-1.26697">
        <ele>65.8</ele>
      </trkpt>
      <trkpt lat="46.82262" lon="-1.2668">
        <ele>65.4</ele>
      </trkpt>
      <trkpt lat="46.82222" lon="-1.2667">
        <ele>63.1</ele>
      </trkpt>
      <trkpt lat="46.82168" lon="-1.26651">
        <ele>62.2</ele>
      </trkpt>
      <trkpt lat="46.82124" lon="-1.26655">
        <ele>63.4</ele>
      </trkpt>
      <trkpt lat="46.82077" lon="-1.26666">
        <ele>64</ele>
      </trkpt>
      <trkpt lat="46.82041" lon="-1.26673">
        <ele>61.1</ele>
      </trkpt>
      <trkpt lat="46.8199" lon="-1.26672">
        <ele>58.7</ele>
      </trkpt>
      <trkpt lat="46.81916" lon="-1.26668">
        <ele>58.9</ele>
      </trkpt>
      <trkpt lat="46.81859" lon="-1.26664">
        <ele>63.8</ele>
      </trkpt>
      <trkpt lat="46.81822" lon="-1.26657">
        <ele>68.4</ele>
      </trkpt>
      <trkpt lat="46.81777" lon="-1.26641">
        <ele>69.9</ele>
      </trkpt>
      <trkpt lat="46.81743" lon="-1.26638">
        <ele>68.8</ele>
      </trkpt>
      <trkpt lat="46.81699" lon="-1.2665">
        <ele>67.2</ele>
      </trkpt>
      <trkpt lat="46.81655" lon="-1.26663">
        <ele>65.9</ele>
      </trkpt>
      <trkpt lat="46.81614" lon="-1.26666">
        <ele>65.9</ele>
      </trkpt>
      <trkpt lat="46.81575" lon="-1.26655">
        <ele>66.3</ele>
      </trkpt>
      <trkpt lat="46.81527" lon="-1.26639">
        <ele>68</ele>
      </trkpt>
      <trkpt lat="46.81446" lon="-1.26617">
        <ele>68.5</ele>
      </trkpt>
      <trkpt lat="46.81401" lon="-1.26593">
        <ele>68.6</ele>
      </trkpt>
      <trkpt lat="46.81359" lon="-1.26554">
        <ele>69</ele>
      </trkpt>
      <trkpt lat="46.81336" lon="-1.26517">
        <ele>68.8</ele>
      </trkpt>
      <trkpt lat="46.81317" lon="-1.26482">
        <ele>70.2</ele>
      </trkpt>
      <trkpt lat="46.81294" lon="-1.26432">
        <ele>71.4</ele>
      </trkpt>
      <trkpt lat="46.81275" lon="-1.26414">
        <ele>72</ele>
      </trkpt>
      <trkpt lat="46.81244" lon="-1.26389">
        <ele>72.2</ele>
      </trkpt>
      <trkpt lat="46.81208" lon="-1.26369">
        <ele>72.9</ele>
      </trkpt>
      <trkpt lat="46.81155" lon="-1.26341">
        <ele>74.3</ele>
      </trkpt>
      <trkpt lat="46.81102" lon="-1.26311">
        <ele>74</ele>
      </trkpt>
      <trkpt lat="46.81066" lon="-1.26277">
        <ele>74.2</ele>
      </trkpt>
      <trkpt lat="46.81022" lon="-1.26224">
        <ele>75.1</ele>
      </trkpt>
      <trkpt lat="46.8099" lon="-1.26192">
        <ele>73.9</ele>
      </trkpt>
      <trkpt lat="46.80954" lon="-1.26157">
        <ele>73.4</ele>
      </trkpt>
      <trkpt lat="46.80923" lon="-1.26148">
        <ele>74.6</ele>
      </trkpt>
      <trkpt lat="46.80867" lon="-1.26131">
        <ele>77.6</ele>
      </trkpt>
      <trkpt lat="46.80816" lon="-1.26118">
        <ele>79.3</ele>
      </trkpt>
      <trkpt lat="46.80764" lon="-1.26104">
        <ele>80.4</ele>
      </trkpt>
      <trkpt lat="46.80731" lon="-1.26105">
        <ele>80.8</ele>
      </trkpt>
      <trkpt lat="46.80694" lon="-1.26114">
        <ele>82.1</ele>
      </trkpt>
      <trkpt lat="46.80642" lon="-1.26127">
        <ele>83.5</ele>
      </trkpt>
      <trkpt lat="46.80579" lon="-1.26133">
        <ele>86.2</ele>
      </trkpt>
      <trkpt lat="46.8053" lon="-1.26138">
        <ele>87</ele>
      </trkpt>
      <trkpt lat="46.80501" lon="-1.26144">
        <ele>87.8</ele>
      </trkpt>
      <trkpt lat="46.80475" lon="-1.2614">
        <ele>88</ele>
      </trkpt>
      <trkpt lat="46.80412" lon="-1.26124">
        <ele>88</ele>
      </trkpt>
      <trkpt lat="46.80352" lon="-1.26104">
        <ele>88</ele>
      </trkpt>
      <trkpt lat="46.8024" lon="-1.26074">
        <ele>87</ele>
      </trkpt>
      <trkpt lat="46.80093" lon="-1.26025">
        <ele>86.4</ele>
      </trkpt>
      <trkpt lat="46.79954" lon="-1.25986">
        <ele>84.3</ele>
      </trkpt>
      <trkpt lat="46.79886" lon="-1.25963">
        <ele>84</ele>
      </trkpt>
      <trkpt lat="46.79827" lon="-1.25943">
        <ele>83</ele>
      </trkpt>
      <trkpt lat="46.79803" lon="-1.25937">
        <ele>83</ele>
      </trkpt>
      <trkpt lat="46.79785" lon="-1.25923">
        <ele>82.4</ele>
      </trkpt>
      <trkpt lat="46.79768" lon="-1.25902">
        <ele>82</ele>
      </trkpt>
      <trkpt lat="46.79745" lon="-1.2587">
        <ele>81.3</ele>
      </trkpt>
      <trkpt lat="46.79722" lon="-1.25837">
        <ele>81</ele>
      </trkpt>
      <trkpt lat="46.79699" lon="-1.25804">
        <ele>80.2</ele>
      </trkpt>
      <trkpt lat="46.7966" lon="-1.25745">
        <ele>78.7</ele>
      </trkpt>
      <trkpt lat="46.79612" lon="-1.25686">
        <ele>76</ele>
      </trkpt>
      <trkpt lat="46.79564" lon="-1.2563">
        <ele>73.1</ele>
      </trkpt>
      <trkpt lat="46.79525" lon="-1.25603">
        <ele>71.8</ele>
      </trkpt>
      <trkpt lat="46.79478" lon="-1.25566">
        <ele>70.1</ele>
      </trkpt>
      <trkpt lat="46.79435" lon="-1.25534">
        <ele>68.4</ele>
      </trkpt>
      <trkpt lat="46.79398" lon="-1.25504">
        <ele>65.8</ele>
      </trkpt>
      <trkpt lat="46.79375" lon="-1.25479">
        <ele>65.4</ele>
      </trkpt>
      <trkpt lat="46.79352" lon="-1.25432">
        <ele>67.9</ele>
      </trkpt>
      <trkpt lat="46.79332" lon="-1.25404">
        <ele>68.5</ele>
      </trkpt>
      <trkpt lat="46.7928" lon="-1.25344">
        <ele>72</ele>
      </trkpt>
      <trkpt lat="46.79227" lon="-1.25285">
        <ele>74.3</ele>
      </trkpt>
      <trkpt lat="46.79164" lon="-1.25215">
        <ele>77.6</ele>
      </trkpt>
      <trkpt lat="46.79114" lon="-1.2515">
        <ele>80</ele>
      </trkpt>
      <trkpt lat="46.79049" lon="-1.25031">
        <ele>79.1</ele>
      </trkpt>
      <trkpt lat="46.78986" lon="-1.24944">
        <ele>77.5</ele>
      </trkpt>
      <trkpt lat="46.78945" lon="-1.24879">
        <ele>76.6</ele>
      </trkpt>
      <trkpt lat="46.78908" lon="-1.24793">
        <ele>76.2</ele>
      </trkpt>
      <trkpt lat="46.78875" lon="-1.24725">
        <ele>77.1</ele>
      </trkpt>
      <trkpt lat="46.78851" lon="-1.24682">
        <ele>77.2</ele>
      </trkpt>
      <trkpt lat="46.78803" lon="-1.24656">
        <ele>80.5</ele>
      </trkpt>
      <trkpt lat="46.78726" lon="-1.24603">
        <ele>79.6</ele>
      </trkpt>
      <trkpt lat="46.78544" lon="-1.24481">
        <ele>84.1</ele>
      </trkpt>
      <trkpt lat="46.78485" lon="-1.24445">
        <ele>84</ele>
      </trkpt>
      <trkpt lat="46.78449" lon="-1.24433">
        <ele>83.9</ele>
      </trkpt>
      <trkpt lat="46.78372" lon="-1.24407">
        <ele>85.3</ele>
      </trkpt>
      <trkpt lat="46.78325" lon="-1.24377">
        <ele>86</ele>
      </trkpt>
      <trkpt lat="46.78284" lon="-1.24322">
        <ele>87</ele>
      </trkpt>
      <trkpt lat="46.78239" lon="-1.24273">
        <ele>88</ele>
      </trkpt>
      <trkpt lat="46.78175" lon="-1.24227">
        <ele>88</ele>
      </trkpt>
      <trkpt lat="46.78137" lon="-1.2419">
        <ele>89</ele>
      </trkpt>
      <trkpt lat="46.78082" lon="-1.24126">
        <ele>88.5</ele>
      </trkpt>
      <trkpt lat="46.78042" lon="-1.24091">
        <ele>88.1</ele>
      </trkpt>
      <trkpt lat="46.78002" lon="-1.24059">
        <ele>87.7</ele>
      </trkpt>
      <trkpt lat="46.77968" lon="-1.24034">
        <ele>88.3</ele>
      </trkpt>
      <trkpt lat="46.77937" lon="-1.24008">
        <ele>88.5</ele>
      </trkpt>
      <trkpt lat="46.77883" lon="-1.23927">
        <ele>89.7</ele>
      </trkpt>
      <trkpt lat="46.77824" lon="-1.23827">
        <ele>89.6</ele>
      </trkpt>
      <trkpt lat="46.77759" lon="-1.23719">
        <ele>88.2</ele>
      </trkpt>
      <trkpt lat="46.77691" lon="-1.23617">
        <ele>86.1</ele>
      </trkpt>
      <trkpt lat="46.7765" lon="-1.23577">
        <ele>88.1</ele>
      </trkpt>
      <trkpt lat="46.77611" lon="-1.23532">
        <ele>90</ele>
      </trkpt>
      <trkpt lat="46.77599" lon="-1.2353">
        <ele>90</ele>
      </trkpt>
      <trkpt lat="46.77588" lon="-1.23533">
        <ele>90</ele>
      </trkpt>
      <trkpt lat="46.77581" lon="-1.23524">
        <ele>90.2</ele>
      </trkpt>
      <trkpt lat="46.77579" lon="-1.23511">
        <ele>90.3</ele>
      </trkpt>
      <trkpt lat="46.77583" lon="-1.23499">
        <ele>90</ele>
      </trkpt>
      <trkpt lat="46.77586" lon="-1.2349">
        <ele>89.5</ele>
      </trkpt>
      <trkpt lat="46.77542" lon="-1.23338">
        <ele>87.6</ele>
      </trkpt>
      <trkpt lat="46.77511" lon="-1.23235">
        <ele>86.8</ele>
      </trkpt>
      <trkpt lat="46.77505" lon="-1.23228">
        <ele>86.8</ele>
      </trkpt>
      <trkpt lat="46.77503" lon="-1.23222">
        <ele>86.9</ele>
      </trkpt>
      <trkpt lat="46.77497" lon="-1.23216">
        <ele>86.8</ele>
      </trkpt>
      <trkpt lat="46.77502" lon="-1.23206">
        <ele>86.4</ele>
      </trkpt>
      <trkpt lat="46.77499" lon="-1.23194">
        <ele>86</ele>
      </trkpt>
      <trkpt lat="46.77472" lon="-1.23113">
        <ele>86</ele>
      </trkpt>
      <trkpt lat="46.77443" lon="-1.23054">
        <ele>85.1</ele>
      </trkpt>
      <trkpt lat="46.77419" lon="-1.2301">
        <ele>85.3</ele>
      </trkpt>
      <trkpt lat="46.77399" lon="-1.22955">
        <ele>85.6</ele>
      </trkpt>
      <trkpt lat="46.77374" lon="-1.22914">
        <ele>86.4</ele>
      </trkpt>
      <trkpt lat="46.7735" lon="-1.22891">
        <ele>86.5</ele>
      </trkpt>
      <trkpt lat="46.77324" lon="-1.22867">
        <ele>85.9</ele>
      </trkpt>
      <trkpt lat="46.77313" lon="-1.22845">
        <ele>84.8</ele>
      </trkpt>
      <trkpt lat="46.77309" lon="-1.22815">
        <ele>83.6</ele>
      </trkpt>
      <trkpt lat="46.77314" lon="-1.22767">
        <ele>82.1</ele>
      </trkpt>
      <trkpt lat="46.77319" lon="-1.22735">
        <ele>81.2</ele>
      </trkpt>
      <trkpt lat="46.77318" lon="-1.2271">
        <ele>80.6</ele>
      </trkpt>
      <trkpt lat="46.77307" lon="-1.22692">
        <ele>80</ele>
      </trkpt>
      <trkpt lat="46.77297" lon="-1.22685">
        <ele>80</ele>
      </trkpt>
      <trkpt lat="46.77273" lon="-1.22679">
        <ele>80</ele>
      </trkpt>
      <trkpt lat="46.77252" lon="-1.22688">
        <ele>80</ele>
      </trkpt>
      <trkpt lat="46.77241" lon="-1.22701">
        <ele>80.2</ele>
      </trkpt>
      <trkpt lat="46.77218" lon="-1.22733">
        <ele>81.2</ele>
      </trkpt>
      <trkpt lat="46.77201" lon="-1.22754">
        <ele>81.9</ele>
      </trkpt>
      <trkpt lat="46.77191" lon="-1.22765">
        <ele>82.8</ele>
      </trkpt>
      <trkpt lat="46.77181" lon="-1.22759">
        <ele>83.4</ele>
      </trkpt>
      <trkpt lat="46.77172" lon="-1.22751">
        <ele>84.4</ele>
      </trkpt>
      <trkpt lat="46.77171" lon="-1.22727">
        <ele>83.1</ele>
      </trkpt>
      <trkpt lat="46.7717" lon="-1.22696">
        <ele>81.9</ele>
      </trkpt>
      <trkpt lat="46.77173" lon="-1.22678">
        <ele>81.8</ele>
      </trkpt>
      <trkpt lat="46.77178" lon="-1.2266">
        <ele>81.6</ele>
      </trkpt>
      <trkpt lat="46.77172" lon="-1.22644">
        <ele>81.8</ele>
      </trkpt>
      <trkpt lat="46.77163" lon="-1.2263">
        <ele>82.5</ele>
      </trkpt>
      <trkpt lat="46.77149" lon="-1.226">
        <ele>83.6</ele>
      </trkpt>
      <trkpt lat="46.77127" lon="-1.22524">
        <ele>84.4</ele>
      </trkpt>
      <trkpt lat="46.77109" lon="-1.22468">
        <ele>84.1</ele>
      </trkpt>
      <trkpt lat="46.77083" lon="-1.22412">
        <ele>83.9</ele>
      </trkpt>
      <trkpt lat="46.77046" lon="-1.22359">
        <ele>83</ele>
      </trkpt>
      <trkpt lat="46.77012" lon="-1.22308">
        <ele>82.6</ele>
      </trkpt>
      <trkpt lat="46.76991" lon="-1.22265">
        <ele>83.6</ele>
      </trkpt>
      <trkpt lat="46.76974" lon="-1.222">
        <ele>85</ele>
      </trkpt>
      <trkpt lat="46.76961" lon="-1.22128">
        <ele>85</ele>
      </trkpt>
      <trkpt lat="46.76946" lon="-1.22071">
        <ele>84.5</ele>
      </trkpt>
      <trkpt lat="46.76929" lon="-1.22037">
        <ele>84.2</ele>
      </trkpt>
      <trkpt lat="46.76818" lon="-1.21842">
        <ele>82</ele>
      </trkpt>
      <trkpt lat="46.76795" lon="-1.2179">
        <ele>83.4</ele>
      </trkpt>
      <trkpt lat="46.76765" lon="-1.21724">
        <ele>83.9</ele>
      </trkpt>
      <trkpt lat="46.76743" lon="-1.21645">
        <ele>82.5</ele>
      </trkpt>
      <trkpt lat="46.76727" lon="-1.21573">
        <ele>81.6</ele>
      </trkpt>
      <trkpt lat="46.76701" lon="-1.21431">
        <ele>82</ele>
      </trkpt>
      <trkpt lat="46.76685" lon="-1.21338">
        <ele>80.2</ele>
      </trkpt>
      <trkpt lat="46.76657" lon="-1.21258">
        <ele>80.2</ele>
      </trkpt>
      <trkpt lat="46.76579" lon="-1.21051">
        <ele>85.2</ele>
      </trkpt>
      <trkpt lat="46.76499" lon="-1.20831">
        <ele>89.1</ele>
      </trkpt>
      <trkpt lat="46.7645" lon="-1.20696">
        <ele>91.8</ele>
      </trkpt>
      <trkpt lat="46.76427" lon="-1.20639">
        <ele>92.6</ele>
      </trkpt>
      <trkpt lat="46.7641" lon="-1.2059">
        <ele>93.2</ele>
      </trkpt>
      <trkpt lat="46.76395" lon="-1.205">
        <ele>93.8</ele>
      </trkpt>
      <trkpt lat="46.76399" lon="-1.20464">
        <ele>93.6</ele>
      </trkpt>
      <trkpt lat="46.76408" lon="-1.20404">
        <ele>92.9</ele>
      </trkpt>
      <trkpt lat="46.76451" lon="-1.20308">
        <ele>91.5</ele>
      </trkpt>
      <trkpt lat="46.76469" lon="-1.20254">
        <ele>91.1</ele>
      </trkpt>
      <trkpt lat="46.76475" lon="-1.20194">
        <ele>92.8</ele>
      </trkpt>
      <trkpt lat="46.76474" lon="-1.20001">
        <ele>91</ele>
      </trkpt>
      <trkpt lat="46.76477" lon="-1.19692">
        <ele>87.2</ele>
      </trkpt>
      <trkpt lat="46.76478" lon="-1.1957">
        <ele>87.2</ele>
      </trkpt>
      <trkpt lat="46.76472" lon="-1.19524">
        <ele>87.1</ele>
      </trkpt>
      <trkpt lat="46.76459" lon="-1.19489">
        <ele>87</ele>
      </trkpt>
      <trkpt lat="46.76424" lon="-1.19437">
        <ele>85.3</ele>
      </trkpt>
      <trkpt lat="46.76384" lon="-1.19379">
        <ele>83.8</ele>
      </trkpt>
      <trkpt lat="46.76338" lon="-1.19311">
        <ele>82.8</ele>
      </trkpt>
      <trkpt lat="46.76274" lon="-1.19215">
        <ele>81.9</ele>
      </trkpt>
      <trkpt lat="46.76214" lon="-1.19119">
        <ele>79.7</ele>
      </trkpt>
      <trkpt lat="46.76153" lon="-1.1895">
        <ele>76.4</ele>
      </trkpt>
      <trkpt lat="46.76116" lon="-1.18841">
        <ele>73.1</ele>
      </trkpt>
      <trkpt lat="46.76019" lon="-1.18672">
        <ele>72.8</ele>
      </trkpt>
      <trkpt lat="46.75909" lon="-1.18485">
        <ele>74.5</ele>
      </trkpt>
      <trkpt lat="46.75867" lon="-1.18414">
        <ele>71.9</ele>
      </trkpt>
      <trkpt lat="46.75814" lon="-1.18352">
        <ele>70.5</ele>
      </trkpt>
      <trkpt lat="46.75699" lon="-1.18225">
        <ele>73.8</ele>
      </trkpt>
      <trkpt lat="46.756" lon="-1.18113">
        <ele>78.9</ele>
      </trkpt>
      <trkpt lat="46.75546" lon="-1.1803">
        <ele>80.7</ele>
      </trkpt>
      <trkpt lat="46.75484" lon="-1.17917">
        <ele>82.2</ele>
      </trkpt>
      <trkpt lat="46.75409" lon="-1.17788">
        <ele>81.4</ele>
      </trkpt>
      <trkpt lat="46.75348" lon="-1.1768">
        <ele>79.4</ele>
      </trkpt>
      <trkpt lat="46.75319" lon="-1.17619">
        <ele>77.6</ele>
      </trkpt>
      <trkpt lat="46.75299" lon="-1.17552">
        <ele>75.1</ele>
      </trkpt>
      <trkpt lat="46.75289" lon="-1.1749">
        <ele>73.9</ele>
      </trkpt>
      <trkpt lat="46.75283" lon="-1.17358">
        <ele>73.6</ele>
      </trkpt>
      <trkpt lat="46.75268" lon="-1.17161">
        <ele>74.4</ele>
      </trkpt>
      <trkpt lat="46.75243" lon="-1.16931">
        <ele>75.2</ele>
      </trkpt>
      <trkpt lat="46.75244" lon="-1.16826">
        <ele>76.4</ele>
      </trkpt>
      <trkpt lat="46.75258" lon="-1.1669">
        <ele>77.4</ele>
      </trkpt>
      <trkpt lat="46.75279" lon="-1.16477">
        <ele>76.8</ele>
      </trkpt>
      <trkpt lat="46.75276" lon="-1.16377">
        <ele>75</ele>
      </trkpt>
      <trkpt lat="46.75271" lon="-1.16317">
        <ele>74.5</ele>
      </trkpt>
      <trkpt lat="46.75254" lon="-1.1625">
        <ele>74.9</ele>
      </trkpt>
      <trkpt lat="46.75195" lon="-1.1606">
        <ele>77.8</ele>
      </trkpt>
      <trkpt lat="46.75142" lon="-1.15894">
        <ele>78.6</ele>
      </trkpt>
      <trkpt lat="46.75071" lon="-1.15661">
        <ele>82</ele>
      </trkpt>
      <trkpt lat="46.75036" lon="-1.15549">
        <ele>81.7</ele>
      </trkpt>
      <trkpt lat="46.75025" lon="-1.15483">
        <ele>81.5</ele>
      </trkpt>
      <trkpt lat="46.75015" lon="-1.15359">
        <ele>78.9</ele>
      </trkpt>
      <trkpt lat="46.74987" lon="-1.15022">
        <ele>78.9</ele>
      </trkpt>
      <trkpt lat="46.7497" lon="-1.14799">
        <ele>76.9</ele>
      </trkpt>
      <trkpt lat="46.74942" lon="-1.14439">
        <ele>66.2</ele>
      </trkpt>
      <trkpt lat="46.74921" lon="-1.14171">
        <ele>67.5</ele>
      </trkpt>
      <trkpt lat="46.74898" lon="-1.13888">
        <ele>72.6</ele>
      </trkpt>
      <trkpt lat="46.74888" lon="-1.13805">
        <ele>71</ele>
      </trkpt>
      <trkpt lat="46.74865" lon="-1.13695">
        <ele>67.7</ele>
      </trkpt>
      <trkpt lat="46.74835" lon="-1.13537">
        <ele>61.3</ele>
      </trkpt>
      <trkpt lat="46.74797" lon="-1.13348">
        <ele>57.3</ele>
      </trkpt>
      <trkpt lat="46.74776" lon="-1.13234">
        <ele>55.9</ele>
      </trkpt>
      <trkpt lat="46.74779" lon="-1.12954">
        <ele>57</ele>
      </trkpt>
      <trkpt lat="46.74787" lon="-1.12571">
        <ele>51.3</ele>
      </trkpt>
      <trkpt lat="46.74796" lon="-1.12233">
        <ele>56</ele>
      </trkpt>
      <trkpt lat="46.74796" lon="-1.12066">
        <ele>54.5</ele>
      </trkpt>
      <trkpt lat="46.74771" lon="-1.11933">
        <ele>50.2</ele>
      </trkpt>
      <trkpt lat="46.74734" lon="-1.11747">
        <ele>49.1</ele>
      </trkpt>
      <trkpt lat="46.74701" lon="-1.11575">
        <ele>50.2</ele>
      </trkpt>
      <trkpt lat="46.74681" lon="-1.11472">
        <ele>50.5</ele>
      </trkpt>
      <trkpt lat="46.74671" lon="-1.1143">
        <ele>50.7</ele>
      </trkpt>
      <trkpt lat="46.74837" lon="-1.11446">
        <ele>49</ele>
        <time>2023-11-29T23:16:52Z</time>
      </trkpt>
      <trkpt lat="46.74859" lon="-1.11442">
        <ele>49</ele>
        <time>2023-11-29T23:16:56Z</time>
      </trkpt>
      <trkpt lat="46.74885" lon="-1.11429">
        <ele>50</ele>
        <time>2023-11-29T23:17:01Z</time>
      </trkpt>
      <trkpt lat="46.7491" lon="-1.1141">
        <ele>50</ele>
        <time>2023-11-29T23:17:06Z</time>
      </trkpt>
      <trkpt lat="46.74931" lon="-1.11388">
        <ele>51</ele>
        <time>2023-11-29T23:17:11Z</time>
      </trkpt>
      <trkpt lat="46.7495" lon="-1.1136">
        <ele>52</ele>
        <time>2023-11-29T23:17:15Z</time>
      </trkpt>
      <trkpt lat="46.74969" lon="-1.11326">
        <ele>54</ele>
        <time>2023-11-29T23:17:21Z</time>
      </trkpt>
      <trkpt lat="46.74982" lon="-1.113">
        <ele>56</ele>
        <time>2023-11-29T23:17:25Z</time>
      </trkpt>
      <trkpt lat="46.75" lon="-1.11255">
        <ele>58</ele>
        <time>2023-11-29T23:17:31Z</time>
      </trkpt>
      <trkpt lat="46.75006" lon="-1.11232">
        <ele>58</ele>
        <time>2023-11-29T23:17:34Z</time>
      </trkpt>
      <trkpt lat="46.75011" lon="-1.1121">
        <ele>59</ele>
        <time>2023-11-29T23:17:37Z</time>
      </trkpt>
      <trkpt lat="46.75016" lon="-1.11158">
        <ele>59</ele>
        <time>2023-11-29T23:17:43Z</time>
      </trkpt>
      <trkpt lat="46.75018" lon="-1.10977">
        <ele>59</ele>
        <time>2023-11-29T23:18:05Z</time>
      </trkpt>
      <trkpt lat="46.75017" lon="-1.10898">
        <ele>58</ele>
        <time>2023-11-29T23:18:15Z</time>
      </trkpt>
      <trkpt lat="46.75013" lon="-1.10859">
        <ele>58</ele>
        <time>2023-11-29T23:18:20Z</time>
      </trkpt>
      <trkpt lat="46.75008" lon="-1.1083">
        <ele>58</ele>
        <time>2023-11-29T23:18:23Z</time>
      </trkpt>
      <trkpt lat="46.75002" lon="-1.10809">
        <ele>58</ele>
        <time>2023-11-29T23:18:26Z</time>
      </trkpt>
      <trkpt lat="46.74958" lon="-1.10686">
        <ele>56</ele>
        <time>2023-11-29T23:18:43Z</time>
      </trkpt>
      <trkpt lat="46.74952" lon="-1.10655">
        <ele>56</ele>
        <time>2023-11-29T23:18:47Z</time>
      </trkpt>
      <trkpt lat="46.74952" lon="-1.10601">
        <ele>55</ele>
        <time>2023-11-29T23:18:54Z</time>
      </trkpt>
      <trkpt lat="46.75025" lon="-1.09806">
        <ele>56</ele>
        <time>2023-11-29T23:20:31Z</time>
      </trkpt>
      <trkpt lat="46.75032" lon="-1.09774">
        <ele>55</ele>
        <time>2023-11-29T23:20:35Z</time>
      </trkpt>
      <trkpt lat="46.75042" lon="-1.09749">
        <ele>55</ele>
        <time>2023-11-29T23:20:39Z</time>
      </trkpt>
      <trkpt lat="46.75055" lon="-1.09724">
        <ele>56</ele>
        <time>2023-11-29T23:20:43Z</time>
      </trkpt>
      <trkpt lat="46.75073" lon="-1.09699">
        <ele>57</ele>
        <time>2023-11-29T23:20:47Z</time>
      </trkpt>
      <trkpt lat="46.75126" lon="-1.09634">
        <ele>59</ele>
        <time>2023-11-29T23:21:00Z</time>
      </trkpt>
      <trkpt lat="46.75136" lon="-1.09624">
        <ele>59</ele>
        <time>2023-11-29T23:21:02Z</time>
      </trkpt>
      <trkpt lat="46.75145" lon="-1.09617">
        <ele>60</ele>
        <time>2023-11-29T23:21:04Z</time>
      </trkpt>
      <trkpt lat="46.75163" lon="-1.09609">
        <ele>61</ele>
        <time>2023-11-29T23:21:07Z</time>
      </trkpt>
      <trkpt lat="46.75193" lon="-1.096">
        <ele>62</ele>
        <time>2023-11-29T23:21:12Z</time>
      </trkpt>
      <trkpt lat="46.75201" lon="-1.09591">
        <ele>62</ele>
        <time>2023-11-29T23:21:14Z</time>
      </trkpt>
      <trkpt lat="46.75202" lon="-1.09561">
        <ele>61</ele>
        <time>2023-11-29T23:21:18Z</time>
      </trkpt>
      <trkpt lat="46.75216" lon="-1.09545">
        <ele>61</ele>
        <time>2023-11-29T23:21:21Z</time>
      </trkpt>
      <trkpt lat="46.75585" lon="-1.09454">
        <ele>68</ele>
        <time>2023-11-29T23:22:28Z</time>
      </trkpt>
      <trkpt lat="46.75623" lon="-1.09442">
        <ele>68</ele>
        <time>2023-11-29T23:22:34Z</time>
      </trkpt>
      <trkpt lat="46.75642" lon="-1.09432">
        <ele>68</ele>
        <time>2023-11-29T23:22:38Z</time>
      </trkpt>
      <trkpt lat="46.75667" lon="-1.09409">
        <ele>68</ele>
        <time>2023-11-29T23:22:43Z</time>
      </trkpt>
      <trkpt lat="46.7569" lon="-1.09384">
        <ele>68</ele>
        <time>2023-11-29T23:22:48Z</time>
      </trkpt>
      <trkpt lat="46.76075" lon="-1.08843">
        <ele>80</ele>
        <time>2023-11-29T23:24:23Z</time>
      </trkpt>
      <trkpt lat="46.76105" lon="-1.08809">
        <ele>79</ele>
        <time>2023-11-29T23:24:30Z</time>
      </trkpt>
      <trkpt lat="46.76367" lon="-1.08584">
        <ele>77</ele>
        <time>2023-11-29T23:25:24Z</time>
      </trkpt>
      <trkpt lat="46.7638" lon="-1.08569">
        <ele>78</ele>
        <time>2023-11-29T23:25:27Z</time>
      </trkpt>
      <trkpt lat="46.76402" lon="-1.08539">
        <ele>79</ele>
        <time>2023-11-29T23:25:33Z</time>
      </trkpt>
      <trkpt lat="46.76701" lon="-1.08019">
        <ele>68</ele>
        <time>2023-11-29T23:26:55Z</time>
      </trkpt>
      <trkpt lat="46.76727" lon="-1.07979">
        <ele>67</ele>
        <time>2023-11-29T23:27:02Z</time>
      </trkpt>
      <trkpt lat="46.7675" lon="-1.07947">
        <ele>65</ele>
        <time>2023-11-29T23:27:08Z</time>
      </trkpt>
      <trkpt lat="46.76778" lon="-1.07917">
        <ele>64</ele>
        <time>2023-11-29T23:27:14Z</time>
      </trkpt>
      <trkpt lat="46.76791" lon="-1.07904">
        <ele>63</ele>
        <time>2023-11-29T23:27:17Z</time>
      </trkpt>
      <trkpt lat="46.76929" lon="-1.07771">
        <ele>69</ele>
        <time>2023-11-29T23:27:46Z</time>
      </trkpt>
      <trkpt lat="46.77062" lon="-1.07642">
        <ele>70</ele>
        <time>2023-11-29T23:28:15Z</time>
      </trkpt>
      <trkpt lat="46.77091" lon="-1.07611">
        <ele>70</ele>
        <time>2023-11-29T23:28:21Z</time>
      </trkpt>
      <trkpt lat="46.77112" lon="-1.07579">
        <ele>70</ele>
        <time>2023-11-29T23:28:26Z</time>
      </trkpt>
      <trkpt lat="46.77122" lon="-1.07559">
        <ele>70</ele>
        <time>2023-11-29T23:28:29Z</time>
      </trkpt>
      <trkpt lat="46.77156" lon="-1.07488">
        <ele>70</ele>
        <time>2023-11-29T23:28:40Z</time>
      </trkpt>
      <trkpt lat="46.7718" lon="-1.07441">
        <ele>72</ele>
        <time>2023-11-29T23:28:47Z</time>
      </trkpt>
      <trkpt lat="46.77207" lon="-1.07402">
        <ele>73</ele>
        <time>2023-11-29T23:28:54Z</time>
      </trkpt>
      <trkpt lat="46.7725" lon="-1.07354">
        <ele>75</ele>
        <time>2023-11-29T23:29:03Z</time>
      </trkpt>
      <trkpt lat="46.77298" lon="-1.07313">
        <ele>76</ele>
        <time>2023-11-29T23:29:13Z</time>
      </trkpt>
      <trkpt lat="46.77324" lon="-1.07297">
        <ele>77</ele>
        <time>2023-11-29T23:29:18Z</time>
      </trkpt>
      <trkpt lat="46.77368" lon="-1.07277">
        <ele>77</ele>
        <time>2023-11-29T23:29:27Z</time>
      </trkpt>
      <trkpt lat="46.77411" lon="-1.07265">
        <ele>77</ele>
        <time>2023-11-29T23:29:34Z</time>
      </trkpt>
      <trkpt lat="46.7766" lon="-1.07251">
        <ele>90</ele>
        <time>2023-11-29T23:30:19Z</time>
      </trkpt>
      <trkpt lat="46.77688" lon="-1.07247">
        <ele>90</ele>
        <time>2023-11-29T23:30:24Z</time>
      </trkpt>
      <trkpt lat="46.77729" lon="-1.07237">
        <ele>92</ele>
        <time>2023-11-29T23:30:31Z</time>
      </trkpt>
      <trkpt lat="46.78034" lon="-1.07145">
        <ele>100</ele>
        <time>2023-11-29T23:31:27Z</time>
      </trkpt>
      <trkpt lat="46.78155" lon="-1.07106">
        <ele>102</ele>
        <time>2023-11-29T23:31:49Z</time>
      </trkpt>
      <trkpt lat="46.78192" lon="-1.07097">
        <ele>102</ele>
        <time>2023-11-29T23:31:55Z</time>
      </trkpt>
      <trkpt lat="46.78208" lon="-1.07091">
        <ele>101</ele>
        <time>2023-11-29T23:31:58Z</time>
      </trkpt>
      <trkpt lat="46.78206" lon="-1.07081">
        <ele>102</ele>
        <time>2023-11-29T23:31:59Z</time>
      </trkpt>
      <trkpt lat="46.78207" lon="-1.07071">
        <ele>102</ele>
        <time>2023-11-29T23:32:01Z</time>
      </trkpt>
      <trkpt lat="46.78211" lon="-1.07062">
        <ele>101</ele>
        <time>2023-11-29T23:32:02Z</time>
      </trkpt>
      <trkpt lat="46.78217" lon="-1.07055">
        <ele>101</ele>
        <time>2023-11-29T23:32:03Z</time>
      </trkpt>
      <trkpt lat="46.78225" lon="-1.07053">
        <ele>101</ele>
        <time>2023-11-29T23:32:05Z</time>
      </trkpt>
      <trkpt lat="46.78232" lon="-1.07055">
        <ele>101</ele>
        <time>2023-11-29T23:32:06Z</time>
      </trkpt>
      <trkpt lat="46.78239" lon="-1.07062">
        <ele>101</ele>
        <time>2023-11-29T23:32:08Z</time>
      </trkpt>
      <trkpt lat="46.78243" lon="-1.07071">
        <ele>101</ele>
        <time>2023-11-29T23:32:09Z</time>
      </trkpt>
      <trkpt lat="46.78339" lon="-1.07035">
        <ele>99</ele>
        <time>2023-11-29T23:32:27Z</time>
      </trkpt>
      <trkpt lat="46.78401" lon="-1.07001">
        <ele>94</ele>
        <time>2023-11-29T23:32:38Z</time>
      </trkpt>
      <trkpt lat="46.78434" lon="-1.06976">
        <ele>93</ele>
        <time>2023-11-29T23:32:45Z</time>
      </trkpt>
      <trkpt lat="46.78465" lon="-1.06947">
        <ele>93</ele>
        <time>2023-11-29T23:32:51Z</time>
      </trkpt>
      <trkpt lat="46.78488" lon="-1.06919">
        <ele>93</ele>
        <time>2023-11-29T23:32:57Z</time>
      </trkpt>
      <trkpt lat="46.78516" lon="-1.06879">
        <ele>94</ele>
        <time>2023-11-29T23:33:04Z</time>
      </trkpt>
      <trkpt lat="46.7854" lon="-1.06836">
        <ele>96</ele>
        <time>2023-11-29T23:33:11Z</time>
      </trkpt>
      <trkpt lat="46.78558" lon="-1.06798">
        <ele>97</ele>
        <time>2023-11-29T23:33:16Z</time>
      </trkpt>
      <trkpt lat="46.78609" lon="-1.0664">
        <ele>103</ele>
        <time>2023-11-29T23:33:37Z</time>
      </trkpt>
      <trkpt lat="46.78644" lon="-1.06522">
        <ele>107</ele>
        <time>2023-11-29T23:33:53Z</time>
      </trkpt>
      <trkpt lat="46.7867" lon="-1.06386">
        <ele>109</ele>
        <time>2023-11-29T23:34:10Z</time>
      </trkpt>
      <trkpt lat="46.78689" lon="-1.06237">
        <ele>108</ele>
        <time>2023-11-29T23:34:29Z</time>
      </trkpt>
      <trkpt lat="46.78695" lon="-1.06163">
        <ele>109</ele>
        <time>2023-11-29T23:34:38Z</time>
      </trkpt>
      <trkpt lat="46.78718" lon="-1.06159">
        <ele>110</ele>
        <time>2023-11-29T23:34:42Z</time>
      </trkpt>
      <trkpt lat="46.78794" lon="-1.06108">
        <ele>108</ele>
        <time>2023-11-29T23:34:57Z</time>
      </trkpt>
      <trkpt lat="46.78813" lon="-1.06101">
        <ele>107</ele>
        <time>2023-11-29T23:35:00Z</time>
      </trkpt>
      <trkpt lat="46.78844" lon="-1.061">
        <ele>106</ele>
        <time>2023-11-29T23:35:06Z</time>
      </trkpt>
      <trkpt lat="46.78862" lon="-1.06104">
        <ele>104</ele>
        <time>2023-11-29T23:35:09Z</time>
      </trkpt>
      <trkpt lat="46.78884" lon="-1.06113">
        <ele>103</ele>
        <time>2023-11-29T23:35:13Z</time>
      </trkpt>
      <trkpt lat="46.7915" lon="-1.06248">
        <ele>91</ele>
        <time>2023-11-29T23:36:03Z</time>
      </trkpt>
      <trkpt lat="46.79193" lon="-1.06267">
        <ele>91</ele>
        <time>2023-11-29T23:36:11Z</time>
      </trkpt>
      <trkpt lat="46.7925" lon="-1.06278">
        <ele>92</ele>
        <time>2023-11-29T23:36:21Z</time>
      </trkpt>
      <trkpt lat="46.79326" lon="-1.06287">
        <ele>91</ele>
        <time>2023-11-29T23:36:35Z</time>
      </trkpt>
      <trkpt lat="46.79414" lon="-1.06308">
        <ele>91</ele>
        <time>2023-11-29T23:36:51Z</time>
      </trkpt>
      <trkpt lat="46.79475" lon="-1.06317">
        <ele>89</ele>
        <time>2023-11-29T23:37:02Z</time>
      </trkpt>
      <trkpt lat="46.79504" lon="-1.06309">
        <ele>88</ele>
        <time>2023-11-29T23:37:07Z</time>
      </trkpt>
      <trkpt lat="46.79745" lon="-1.06194">
        <ele>93</ele>
        <time>2023-11-29T23:37:52Z</time>
      </trkpt>
      <trkpt lat="46.79849" lon="-1.06178">
        <ele>91</ele>
        <time>2023-11-29T23:38:11Z</time>
      </trkpt>
      <trkpt lat="46.79877" lon="-1.06164">
        <ele>91</ele>
        <time>2023-11-29T23:38:16Z</time>
      </trkpt>
      <trkpt lat="46.79881" lon="-1.0616">
        <ele>91</ele>
        <time>2023-11-29T23:38:17Z</time>
      </trkpt>
      <trkpt lat="46.79899" lon="-1.06141">
        <ele>90</ele>
        <time>2023-11-29T23:38:21Z</time>
      </trkpt>
      <trkpt lat="46.80041" lon="-1.0594">
        <ele>93</ele>
        <time>2023-11-29T23:38:56Z</time>
      </trkpt>
      <trkpt lat="46.8006" lon="-1.0592">
        <ele>93</ele>
        <time>2023-11-29T23:39:00Z</time>
      </trkpt>
      <trkpt lat="46.80081" lon="-1.05911">
        <ele>93</ele>
        <time>2023-11-29T23:39:04Z</time>
      </trkpt>
      <trkpt lat="46.801" lon="-1.05907">
        <ele>93</ele>
        <time>2023-11-29T23:39:08Z</time>
      </trkpt>
      <trkpt lat="46.80128" lon="-1.05908">
        <ele>93</ele>
        <time>2023-11-29T23:39:13Z</time>
      </trkpt>
      <trkpt lat="46.8026" lon="-1.0595">
        <ele>91</ele>
        <time>2023-11-29T23:39:37Z</time>
      </trkpt>
      <trkpt lat="46.80282" lon="-1.05951">
        <ele>91</ele>
        <time>2023-11-29T23:39:40Z</time>
      </trkpt>
      <trkpt lat="46.80299" lon="-1.05945">
        <ele>91</ele>
        <time>2023-11-29T23:39:44Z</time>
      </trkpt>
      <trkpt lat="46.8035" lon="-1.05904">
        <ele>91</ele>
        <time>2023-11-29T23:39:54Z</time>
      </trkpt>
      <trkpt lat="46.80369" lon="-1.05894">
        <ele>91</ele>
        <time>2023-11-29T23:39:58Z</time>
      </trkpt>
      <trkpt lat="46.80432" lon="-1.05882">
        <ele>92</ele>
        <time>2023-11-29T23:40:09Z</time>
      </trkpt>
      <trkpt lat="46.80462" lon="-1.05871">
        <ele>93</ele>
        <time>2023-11-29T23:40:14Z</time>
      </trkpt>
      <trkpt lat="46.80505" lon="-1.05841">
        <ele>93</ele>
        <time>2023-11-29T23:40:23Z</time>
      </trkpt>
      <trkpt lat="46.80526" lon="-1.0582">
        <ele>94</ele>
        <time>2023-11-29T23:40:27Z</time>
      </trkpt>
      <trkpt lat="46.80543" lon="-1.058">
        <ele>94</ele>
        <time>2023-11-29T23:40:31Z</time>
      </trkpt>
      <trkpt lat="46.80571" lon="-1.0575">
        <ele>94</ele>
        <time>2023-11-29T23:40:39Z</time>
      </trkpt>
      <trkpt lat="46.80589" lon="-1.05728">
        <ele>93</ele>
        <time>2023-11-29T23:40:43Z</time>
      </trkpt>
      <trkpt lat="46.80614" lon="-1.05703">
        <ele>93</ele>
        <time>2023-11-29T23:40:49Z</time>
      </trkpt>
      <trkpt lat="46.80695" lon="-1.05634">
        <ele>92</ele>
        <time>2023-11-29T23:41:05Z</time>
      </trkpt>
      <trkpt lat="46.80742" lon="-1.05581">
        <ele>93</ele>
        <time>2023-11-29T23:41:16Z</time>
      </trkpt>
      <trkpt lat="46.80831" lon="-1.05475">
        <ele>95</ele>
        <time>2023-11-29T23:41:36Z</time>
      </trkpt>
      <trkpt lat="46.80848" lon="-1.05457">
        <ele>95</ele>
        <time>2023-11-29T23:41:40Z</time>
      </trkpt>
      <trkpt lat="46.80868" lon="-1.05442">
        <ele>96</ele>
        <time>2023-11-29T23:41:44Z</time>
      </trkpt>
      <trkpt lat="46.80886" lon="-1.05432">
        <ele>96</ele>
        <time>2023-11-29T23:41:48Z</time>
      </trkpt>
      <trkpt lat="46.80904" lon="-1.05429">
        <ele>97</ele>
        <time>2023-11-29T23:41:51Z</time>
      </trkpt>
      <trkpt lat="46.80925" lon="-1.05428">
        <ele>98</ele>
        <time>2023-11-29T23:41:54Z</time>
      </trkpt>
      <trkpt lat="46.80943" lon="-1.05432">
        <ele>98</ele>
        <time>2023-11-29T23:41:58Z</time>
      </trkpt>
      <trkpt lat="46.81004" lon="-1.05458">
        <ele>101</ele>
        <time>2023-11-29T23:42:09Z</time>
      </trkpt>
      <trkpt lat="46.81059" lon="-1.05461">
        <ele>103</ele>
        <time>2023-11-29T23:42:19Z</time>
      </trkpt>
      <trkpt lat="46.81198" lon="-1.05493">
        <ele>105</ele>
        <time>2023-11-29T23:42:44Z</time>
      </trkpt>
      <trkpt lat="46.81236" lon="-1.05504">
        <ele>104</ele>
        <time>2023-11-29T23:42:51Z</time>
      </trkpt>
      <trkpt lat="46.81557" lon="-1.05633">
        <ele>105</ele>
        <time>2023-11-29T23:43:50Z</time>
      </trkpt>
      <trkpt lat="46.81594" lon="-1.05644">
        <ele>104</ele>
        <time>2023-11-29T23:43:57Z</time>
      </trkpt>
      <trkpt lat="46.81876" lon="-1.0568">
        <ele>105</ele>
        <time>2023-11-29T23:44:47Z</time>
      </trkpt>
      <trkpt lat="46.81923" lon="-1.05676">
        <ele>106</ele>
        <time>2023-11-29T23:44:55Z</time>
      </trkpt>
      <trkpt lat="46.82039" lon="-1.05625">
        <ele>113</ele>
        <time>2023-11-29T23:45:17Z</time>
      </trkpt>
      <trkpt lat="46.82102" lon="-1.05592">
        <ele>113</ele>
        <time>2023-11-29T23:45:29Z</time>
      </trkpt>
      <trkpt lat="46.82281" lon="-1.05512">
        <ele>110</ele>
        <time>2023-11-29T23:46:02Z</time>
      </trkpt>
      <trkpt lat="46.82366" lon="-1.05469">
        <ele>107</ele>
        <time>2023-11-29T23:46:18Z</time>
      </trkpt>
      <trkpt lat="46.82733" lon="-1.05297">
        <ele>110</ele>
        <time>2023-11-29T23:47:27Z</time>
      </trkpt>
      <trkpt lat="46.82869" lon="-1.05235">
        <ele>104</ele>
        <time>2023-11-29T23:47:52Z</time>
      </trkpt>
      <trkpt lat="46.82892" lon="-1.05224">
        <ele>102</ele>
        <time>2023-11-29T23:47:56Z</time>
      </trkpt>
      <trkpt lat="46.82935" lon="-1.05211">
        <ele>100</ele>
        <time>2023-11-29T23:48:04Z</time>
      </trkpt>
      <trkpt lat="46.82988" lon="-1.05205">
        <ele>100</ele>
        <time>2023-11-29T23:48:14Z</time>
      </trkpt>
      <trkpt lat="46.83049" lon="-1.05193">
        <ele>100</ele>
        <time>2023-11-29T23:48:25Z</time>
      </trkpt>
      <trkpt lat="46.83152" lon="-1.05164">
        <ele>102</ele>
        <time>2023-11-29T23:48:43Z</time>
      </trkpt>
      <trkpt lat="46.83288" lon="-1.05117">
        <ele>104</ele>
        <time>2023-11-29T23:49:08Z</time>
      </trkpt>
      <trkpt lat="46.83315" lon="-1.05247">
        <ele>105</ele>
        <time>2023-11-29T23:49:25Z</time>
      </trkpt>
      <trkpt lat="46.83436" lon="-1.05196">
        <ele>107</ele>
        <time>2023-11-29T23:49:47Z</time>
      </trkpt>
      <trkpt lat="46.83718" lon="-1.05134">
        <ele>98</ele>
        <time>2023-11-29T23:50:38Z</time>
      </trkpt>
      <trkpt lat="46.8374" lon="-1.05124">
        <ele>97</ele>
        <time>2023-11-29T23:50:42Z</time>
      </trkpt>
      <trkpt lat="46.83768" lon="-1.05106">
        <ele>96</ele>
        <time>2023-11-29T23:50:47Z</time>
      </trkpt>
      <trkpt lat="46.83791" lon="-1.05086">
        <ele>95</ele>
        <time>2023-11-29T23:50:52Z</time>
      </trkpt>
      <trkpt lat="46.83815" lon="-1.05077">
        <ele>95</ele>
        <time>2023-11-29T23:50:57Z</time>
      </trkpt>
      <trkpt lat="46.83913" lon="-1.05049">
        <ele>91</ele>
        <time>2023-11-29T23:51:14Z</time>
      </trkpt>
      <trkpt lat="46.83978" lon="-1.05034">
        <ele>94</ele>
        <time>2023-11-29T23:51:26Z</time>
      </trkpt>
      <trkpt lat="46.84058" lon="-1.0499">
        <ele>98</ele>
        <time>2023-11-29T23:51:41Z</time>
      </trkpt>
      <trkpt lat="46.84279" lon="-1.04849">
        <ele>103</ele>
        <time>2023-11-29T23:52:24Z</time>
      </trkpt>
      <trkpt lat="46.84305" lon="-1.0482">
        <ele>104</ele>
        <time>2023-11-29T23:52:30Z</time>
      </trkpt>
      <trkpt lat="46.84331" lon="-1.04787">
        <ele>105</ele>
        <time>2023-11-29T23:52:36Z</time>
      </trkpt>
      <trkpt lat="46.84355" lon="-1.04749">
        <ele>107</ele>
        <time>2023-11-29T23:52:42Z</time>
      </trkpt>
      <trkpt lat="46.84364" lon="-1.04722">
        <ele>107</ele>
        <time>2023-11-29T23:52:46Z</time>
      </trkpt>
      <trkpt lat="46.84365" lon="-1.04695">
        <ele>107</ele>
        <time>2023-11-29T23:52:49Z</time>
      </trkpt>
      <trkpt lat="46.84365" lon="-1.04656">
        <ele>107</ele>
        <time>2023-11-29T23:52:54Z</time>
      </trkpt>
      <trkpt lat="46.84361" lon="-1.04629">
        <ele>107</ele>
        <time>2023-11-29T23:52:57Z</time>
      </trkpt>
      <trkpt lat="46.84317" lon="-1.04461">
        <ele>106</ele>
        <time>2023-11-29T23:53:19Z</time>
      </trkpt>
      <trkpt lat="46.843" lon="-1.04375">
        <ele>107</ele>
        <time>2023-11-29T23:53:30Z</time>
      </trkpt>
      <trkpt lat="46.84289" lon="-1.04288">
        <ele>107</ele>
        <time>2023-11-29T23:53:41Z</time>
      </trkpt>
      <trkpt lat="46.84287" lon="-1.04214">
        <ele>107</ele>
        <time>2023-11-29T23:53:50Z</time>
      </trkpt>
      <trkpt lat="46.84289" lon="-1.04135">
        <ele>108</ele>
        <time>2023-11-29T23:54:00Z</time>
      </trkpt>
      <trkpt lat="46.8433" lon="-1.0379">
        <ele>108</ele>
        <time>2023-11-29T23:54:42Z</time>
      </trkpt>
      <trkpt lat="46.84349" lon="-1.03666">
        <ele>109</ele>
        <time>2023-11-29T23:54:58Z</time>
      </trkpt>
      <trkpt lat="46.8438" lon="-1.035">
        <ele>108</ele>
        <time>2023-11-29T23:55:19Z</time>
      </trkpt>
      <trkpt lat="46.84397" lon="-1.03446">
        <ele>108</ele>
        <time>2023-11-29T23:55:26Z</time>
      </trkpt>
      <trkpt lat="46.84435" lon="-1.03353">
        <ele>110</ele>
        <time>2023-11-29T23:55:39Z</time>
      </trkpt>
      <trkpt lat="46.84452" lon="-1.03297">
        <ele>110</ele>
        <time>2023-11-29T23:55:47Z</time>
      </trkpt>
      <trkpt lat="46.84466" lon="-1.03247">
        <ele>110</ele>
        <time>2023-11-29T23:55:53Z</time>
      </trkpt>
      <trkpt lat="46.84483" lon="-1.03207">
        <ele>110</ele>
        <time>2023-11-29T23:55:59Z</time>
      </trkpt>
      <trkpt lat="46.84488" lon="-1.03167">
        <ele>111</ele>
        <time>2023-11-29T23:56:04Z</time>
      </trkpt>
      <trkpt lat="46.84473" lon="-1.02984">
        <ele>111</ele>
        <time>2023-11-29T23:56:26Z</time>
      </trkpt>
      <trkpt lat="46.84467" lon="-1.02883">
        <ele>112</ele>
        <time>2023-11-29T23:56:39Z</time>
      </trkpt>
      <trkpt lat="46.84486" lon="-1.02776">
        <ele>112</ele>
        <time>2023-11-29T23:56:52Z</time>
      </trkpt>
      <trkpt lat="46.84495" lon="-1.02735">
        <ele>112</ele>
        <time>2023-11-29T23:56:57Z</time>
      </trkpt>
      <trkpt lat="46.84516" lon="-1.02659">
        <ele>112</ele>
        <time>2023-11-29T23:57:07Z</time>
      </trkpt>
      <trkpt lat="46.84548" lon="-1.0256">
        <ele>112</ele>
        <time>2023-11-29T23:57:21Z</time>
      </trkpt>
      <trkpt lat="46.84573" lon="-1.02476">
        <ele>113</ele>
        <time>2023-11-29T23:57:32Z</time>
      </trkpt>
      <trkpt lat="46.84603" lon="-1.02367">
        <ele>113</ele>
        <time>2023-11-29T23:57:46Z</time>
      </trkpt>
      <trkpt lat="46.84607" lon="-1.02343">
        <ele>112</ele>
        <time>2023-11-29T23:57:49Z</time>
      </trkpt>
      <trkpt lat="46.84607" lon="-1.02311">
        <ele>112</ele>
        <time>2023-11-29T23:57:53Z</time>
      </trkpt>
      <trkpt lat="46.84558" lon="-1.01716">
        <ele>107</ele>
        <time>2023-11-29T23:59:06Z</time>
      </trkpt>
      <trkpt lat="46.84552" lon="-1.01689">
        <ele>108</ele>
        <time>2023-11-29T23:59:09Z</time>
      </trkpt>
      <trkpt lat="46.84542" lon="-1.01664">
        <ele>109</ele>
        <time>2023-11-29T23:59:13Z</time>
      </trkpt>
      <trkpt lat="46.84501" lon="-1.01594">
        <ele>110</ele>
        <time>2023-11-29T23:59:24Z</time>
      </trkpt>
      <trkpt lat="46.84495" lon="-1.01577">
        <ele>110</ele>
        <time>2023-11-29T23:59:26Z</time>
      </trkpt>
      <trkpt lat="46.84492" lon="-1.01557">
        <ele>110</ele>
        <time>2023-11-29T23:59:29Z</time>
      </trkpt>
      <trkpt lat="46.84493" lon="-1.01535">
        <ele>110</ele>
        <time>2023-11-29T23:59:32Z</time>
      </trkpt>
      <trkpt lat="46.845" lon="-1.01511">
        <ele>109</ele>
        <time>2023-11-29T23:59:35Z</time>
      </trkpt>
      <trkpt lat="46.84511" lon="-1.01492">
        <ele>109</ele>
        <time>2023-11-29T23:59:38Z</time>
      </trkpt>
      <trkpt lat="46.84522" lon="-1.01506">
        <ele>109</ele>
        <time>2023-11-29T23:59:40Z</time>
      </trkpt>
      <trkpt lat="46.84539" lon="-1.01512">
        <ele>109</ele>
        <time>2023-11-29T23:59:43Z</time>
      </trkpt>
      <trkpt lat="46.84544" lon="-1.01497">
        <ele>109</ele>
        <time>2023-11-29T23:59:45Z</time>
      </trkpt>
      <trkpt lat="46.84549" lon="-1.01491">
        <ele>109</ele>
        <time>2023-11-29T23:59:47Z</time>
      </trkpt>
      <trkpt lat="46.84554" lon="-1.01488">
        <ele>109</ele>
        <time>2023-11-29T23:59:48Z</time>
      </trkpt>
      <trkpt lat="46.84561" lon="-1.01487">
        <ele>109</ele>
        <time>2023-11-29T23:59:49Z</time>
      </trkpt>
      <trkpt lat="46.84568" lon="-1.0149">
        <ele>109</ele>
        <time>2023-11-29T23:59:50Z</time>
      </trkpt>
      <trkpt lat="46.84573" lon="-1.01496">
        <ele>109</ele>
        <time>2023-11-29T23:59:51Z</time>
      </trkpt>
      <trkpt lat="46.84577" lon="-1.01503">
        <ele>109</ele>
        <time>2023-11-29T23:59:52Z</time>
      </trkpt>
      <trkpt lat="46.84579" lon="-1.01513">
        <ele>109</ele>
        <time>2023-11-29T23:59:54Z</time>
      </trkpt>
      <trkpt lat="46.84579" lon="-1.01522">
        <ele>109</ele>
        <time>2023-11-29T23:59:55Z</time>
      </trkpt>
      <trkpt lat="46.84588" lon="-1.01525">
        <ele>109</ele>
        <time>2023-11-29T23:59:56Z</time>
      </trkpt>
      <trkpt lat="46.84657" lon="-1.01541">
        <ele>108</ele>
        <time>2023-11-30T00:00:09Z</time>
      </trkpt>
      <trkpt lat="46.84899" lon="-1.01569">
        <ele>113</ele>
        <time>2023-11-30T00:00:52Z</time>
      </trkpt>
      <trkpt lat="46.84926" lon="-1.01471">
        <ele>114</ele>
        <time>2023-11-30T00:01:05Z</time>
      </trkpt>
      <trkpt lat="46.84934" lon="-1.01449">
        <ele>114</ele>
        <time>2023-11-30T00:01:08Z</time>
      </trkpt>
      <trkpt lat="46.84957" lon="-1.01411">
        <ele>113</ele>
        <time>2023-11-30T00:01:14Z</time>
      </trkpt>
      <trkpt lat="46.84966" lon="-1.01389">
        <ele>114</ele>
        <time>2023-11-30T00:01:17Z</time>
      </trkpt>
      <trkpt lat="46.85004" lon="-1.01243">
        <ele>115</ele>
        <time>2023-11-30T00:01:36Z</time>
      </trkpt>
      <trkpt lat="46.85026" lon="-1.01184">
        <ele>113</ele>
        <time>2023-11-30T00:01:44Z</time>
      </trkpt>
      <trkpt lat="46.85056" lon="-1.01112">
        <ele>110</ele>
        <time>2023-11-30T00:01:55Z</time>
      </trkpt>
      <trkpt lat="46.85069" lon="-1.01039">
        <ele>109</ele>
        <time>2023-11-30T00:02:04Z</time>
      </trkpt>
      <trkpt lat="46.85079" lon="-1.01015">
        <ele>109</ele>
        <time>2023-11-30T00:02:07Z</time>
      </trkpt>
      <trkpt lat="46.85119" lon="-1.00959">
        <ele>107</ele>
        <time>2023-11-30T00:02:17Z</time>
      </trkpt>
      <trkpt lat="46.85163" lon="-1.0092">
        <ele>105</ele>
        <time>2023-11-30T00:02:26Z</time>
      </trkpt>
      <trkpt lat="46.85176" lon="-1.00899">
        <ele>105</ele>
        <time>2023-11-30T00:02:30Z</time>
      </trkpt>
      <trkpt lat="46.85188" lon="-1.00863">
        <ele>105</ele>
        <time>2023-11-30T00:02:35Z</time>
      </trkpt>
      <trkpt lat="46.85204" lon="-1.00807">
        <ele>106</ele>
        <time>2023-11-30T00:02:42Z</time>
      </trkpt>
      <trkpt lat="46.85237" lon="-1.00679">
        <ele>109</ele>
        <time>2023-11-30T00:02:59Z</time>
      </trkpt>
      <trkpt lat="46.85251" lon="-1.00641">
        <ele>110</ele>
        <time>2023-11-30T00:03:04Z</time>
      </trkpt>
      <trkpt lat="46.85259" lon="-1.00588">
        <ele>110</ele>
        <time>2023-11-30T00:03:10Z</time>
      </trkpt>
      <trkpt lat="46.85268" lon="-1.00561">
        <ele>110</ele>
        <time>2023-11-30T00:03:14Z</time>
      </trkpt>
      <trkpt lat="46.85285" lon="-1.00572">
        <ele>110</ele>
        <time>2023-11-30T00:03:17Z</time>
      </trkpt>
      <trkpt lat="46.8534" lon="-1.00587">
        <ele>109</ele>
        <time>2023-11-30T00:03:27Z</time>
      </trkpt>
      <trkpt lat="46.85372" lon="-1.00601">
        <ele>108</ele>
        <time>2023-11-30T00:03:33Z</time>
      </trkpt>
      <trkpt lat="46.8546" lon="-1.00641">
        <ele>108</ele>
        <time>2023-11-30T00:03:50Z</time>
      </trkpt>
      <trkpt lat="46.85483" lon="-1.00655">
        <ele>108</ele>
        <time>2023-11-30T00:03:54Z</time>
      </trkpt>
      <trkpt lat="46.85509" lon="-1.00674">
        <ele>108</ele>
        <time>2023-11-30T00:03:59Z</time>
      </trkpt>
      <trkpt lat="46.85539" lon="-1.00693">
        <ele>108</ele>
        <time>2023-11-30T00:04:05Z</time>
      </trkpt>
      <trkpt lat="46.85562" lon="-1.00711">
        <ele>108</ele>
        <time>2023-11-30T00:04:10Z</time>
      </trkpt>
      <trkpt lat="46.8569" lon="-1.00829">
        <ele>112</ele>
        <time>2023-11-30T00:04:37Z</time>
      </trkpt>
      <trkpt lat="46.85838" lon="-1.00917">
        <ele>113</ele>
        <time>2023-11-30T00:05:05Z</time>
      </trkpt>
      <trkpt lat="46.8584" lon="-1.00911">
        <ele>113</ele>
        <time>2023-11-30T00:05:06Z</time>
      </trkpt>
      <trkpt lat="46.85848" lon="-1.00905">
        <ele>113</ele>
        <time>2023-11-30T00:05:08Z</time>
      </trkpt>
      <trkpt lat="46.85852" lon="-1.00904">
        <ele>113</ele>
        <time>2023-11-30T00:05:08Z</time>
      </trkpt>
      <trkpt lat="46.85859" lon="-1.00908">
        <ele>113</ele>
        <time>2023-11-30T00:05:10Z</time>
      </trkpt>
      <trkpt lat="46.85864" lon="-1.00916">
        <ele>113</ele>
        <time>2023-11-30T00:05:11Z</time>
      </trkpt>
      <trkpt lat="46.85864" lon="-1.00927">
        <ele>113</ele>
        <time>2023-11-30T00:05:12Z</time>
      </trkpt>
      <trkpt lat="46.85869" lon="-1.00937">
        <ele>113</ele>
        <time>2023-11-30T00:05:14Z</time>
      </trkpt>
      <trkpt lat="46.85879" lon="-1.00946">
        <ele>113</ele>
        <time>2023-11-30T00:05:16Z</time>
      </trkpt>
      <trkpt lat="46.85951" lon="-1.00979">
        <ele>113</ele>
        <time>2023-11-30T00:05:29Z</time>
      </trkpt>
      <trkpt lat="46.85956" lon="-1.00964">
        <ele>113</ele>
        <time>2023-11-30T00:05:31Z</time>
      </trkpt>
      <trkpt lat="46.85979" lon="-1.00924">
        <ele>112</ele>
        <time>2023-11-30T00:05:38Z</time>
      </trkpt>
      <trkpt lat="46.85999" lon="-1.00892">
        <ele>112</ele>
        <time>2023-11-30T00:05:43Z</time>
      </trkpt>
      <trkpt lat="46.86071" lon="-1.00794">
        <ele>114</ele>
        <time>2023-11-30T00:06:00Z</time>
      </trkpt>
      <trkpt lat="46.86095" lon="-1.00768">
        <ele>115</ele>
        <time>2023-11-30T00:06:06Z</time>
      </trkpt>
      <trkpt lat="46.86141" lon="-1.00728">
        <ele>116</ele>
        <time>2023-11-30T00:06:15Z</time>
      </trkpt>
      <trkpt lat="46.86183" lon="-1.00705">
        <ele>116</ele>
        <time>2023-11-30T00:06:23Z</time>
      </trkpt>
      <trkpt lat="46.86271" lon="-1.00663">
        <ele>118</ele>
        <time>2023-11-30T00:06:40Z</time>
      </trkpt>
      <trkpt lat="46.86324" lon="-1.00626">
        <ele>119</ele>
        <time>2023-11-30T00:06:50Z</time>
      </trkpt>
      <trkpt lat="46.86367" lon="-1.00581">
        <ele>120</ele>
        <time>2023-11-30T00:07:00Z</time>
      </trkpt>
      <trkpt lat="46.86382" lon="-1.00563">
        <ele>120</ele>
        <time>2023-11-30T00:07:03Z</time>
      </trkpt>
      <trkpt lat="46.86389" lon="-1.00558">
        <ele>120</ele>
        <time>2023-11-30T00:07:04Z</time>
      </trkpt>
    </trkseg>
  </trk>
</gpx>